<?xml version="1.0" encoding="UTF-8" standalone="no" ?>
<gpx xmlns="http://www.topografix.com/GPX/1/1" xmlns:xsi="http://www.w3.org/2001/XMLSchema-instance" xsi:schemaLocation="http://www.topografix.com/GPX/1/1 http://www.topografix.com/GPX/1/1/gpx.xsd" version="1.1" creator="VisuGPX - https://www.visugpx.com">
  <metadata>
    <name>Le tombeau de l\'indienne - Saint-Avit</name>
    <desc><![CDATA[Peu de kilomètres, mais assez physique et parfois assez technique.]]></desc>
  </metadata>
  <trk>
    <name><![CDATA[24-NOV-13 11:48:05]]></name>
    <trkseg>
      <trkpt lat="44.6005" lon="0.89484">
        <ele>174.62</ele>
        <time>2013-11-24T08:04:10Z</time>
      </trkpt>
      <trkpt lat="44.60048" lon="0.8948">
        <ele>174.62</ele>
        <time>2013-11-24T08:04:33Z</time>
      </trkpt>
      <trkpt lat="44.60048" lon="0.8948">
        <ele>175.58</ele>
        <time>2013-11-24T08:04:50Z</time>
      </trkpt>
      <trkpt lat="44.60051" lon="0.89479">
        <ele>174.62</ele>
        <time>2013-11-24T08:05:08Z</time>
      </trkpt>
      <trkpt lat="44.60049" lon="0.8948">
        <ele>174.62</ele>
        <time>2013-11-24T08:05:25Z</time>
      </trkpt>
      <trkpt lat="44.60049" lon="0.8948">
        <ele>174.14</ele>
        <time>2013-11-24T08:05:42Z</time>
      </trkpt>
      <trkpt lat="44.60049" lon="0.89479">
        <ele>173.66</ele>
        <time>2013-11-24T08:05:56Z</time>
      </trkpt>
      <trkpt lat="44.60049" lon="0.89479">
        <ele>174.14</ele>
        <time>2013-11-24T08:06:00Z</time>
      </trkpt>
      <trkpt lat="44.60067" lon="0.895">
        <ele>174.62</ele>
        <time>2013-11-24T08:06:11Z</time>
      </trkpt>
      <trkpt lat="44.60082" lon="0.89476">
        <ele>175.58</ele>
        <time>2013-11-24T08:06:20Z</time>
      </trkpt>
      <trkpt lat="44.60084" lon="0.89473">
        <ele>175.1</ele>
        <time>2013-11-24T08:06:21Z</time>
      </trkpt>
      <trkpt lat="44.6011" lon="0.89422">
        <ele>175.58</ele>
        <time>2013-11-24T08:06:37Z</time>
      </trkpt>
      <trkpt lat="44.60126" lon="0.89345">
        <ele>174.62</ele>
        <time>2013-11-24T08:06:55Z</time>
      </trkpt>
      <trkpt lat="44.60127" lon="0.89317">
        <ele>174.62</ele>
        <time>2013-11-24T08:07:01Z</time>
      </trkpt>
      <trkpt lat="44.60135" lon="0.89307">
        <ele>173.66</ele>
        <time>2013-11-24T08:07:05Z</time>
      </trkpt>
      <trkpt lat="44.60171" lon="0.89294">
        <ele>169.81</ele>
        <time>2013-11-24T08:07:11Z</time>
      </trkpt>
      <trkpt lat="44.60186" lon="0.89279">
        <ele>169.81</ele>
        <time>2013-11-24T08:07:14Z</time>
      </trkpt>
      <trkpt lat="44.60235" lon="0.89247">
        <ele>172.69</ele>
        <time>2013-11-24T08:07:28Z</time>
      </trkpt>
      <trkpt lat="44.60284" lon="0.89226">
        <ele>171.25</ele>
        <time>2013-11-24T08:07:40Z</time>
      </trkpt>
      <trkpt lat="44.60316" lon="0.8918">
        <ele>173.17</ele>
        <time>2013-11-24T08:07:52Z</time>
      </trkpt>
      <trkpt lat="44.60353" lon="0.89145">
        <ele>175.58</ele>
        <time>2013-11-24T08:08:05Z</time>
      </trkpt>
      <trkpt lat="44.60396" lon="0.89118">
        <ele>178.94</ele>
        <time>2013-11-24T08:08:19Z</time>
      </trkpt>
      <trkpt lat="44.60453" lon="0.89077">
        <ele>182.31</ele>
        <time>2013-11-24T08:08:38Z</time>
      </trkpt>
      <trkpt lat="44.60486" lon="0.89062">
        <ele>184.71</ele>
        <time>2013-11-24T08:08:50Z</time>
      </trkpt>
      <trkpt lat="44.6053" lon="0.8903">
        <ele>185.19</ele>
        <time>2013-11-24T08:09:05Z</time>
      </trkpt>
      <trkpt lat="44.60587" lon="0.89002">
        <ele>184.71</ele>
        <time>2013-11-24T08:09:21Z</time>
      </trkpt>
      <trkpt lat="44.60635" lon="0.88989">
        <ele>184.71</ele>
        <time>2013-11-24T08:09:34Z</time>
      </trkpt>
      <trkpt lat="44.60683" lon="0.88974">
        <ele>187.11</ele>
        <time>2013-11-24T08:09:48Z</time>
      </trkpt>
      <trkpt lat="44.60695" lon="0.8897">
        <ele>186.63</ele>
        <time>2013-11-24T08:09:51Z</time>
      </trkpt>
      <trkpt lat="44.60713" lon="0.88961">
        <ele>185.67</ele>
        <time>2013-11-24T08:09:55Z</time>
      </trkpt>
      <trkpt lat="44.60729" lon="0.88951">
        <ele>185.19</ele>
        <time>2013-11-24T08:09:59Z</time>
      </trkpt>
      <trkpt lat="44.60759" lon="0.88932">
        <ele>184.71</ele>
        <time>2013-11-24T08:10:07Z</time>
      </trkpt>
      <trkpt lat="44.60788" lon="0.88918">
        <ele>186.63</ele>
        <time>2013-11-24T08:10:14Z</time>
      </trkpt>
      <trkpt lat="44.60826" lon="0.8889">
        <ele>189.52</ele>
        <time>2013-11-24T08:10:24Z</time>
      </trkpt>
      <trkpt lat="44.60834" lon="0.88883">
        <ele>190.48</ele>
        <time>2013-11-24T08:10:26Z</time>
      </trkpt>
      <trkpt lat="44.60851" lon="0.8887">
        <ele>192.4</ele>
        <time>2013-11-24T08:10:30Z</time>
      </trkpt>
      <trkpt lat="44.60888" lon="0.88846">
        <ele>191.92</ele>
        <time>2013-11-24T08:10:38Z</time>
      </trkpt>
      <trkpt lat="44.60898" lon="0.8884">
        <ele>191.92</ele>
        <time>2013-11-24T08:10:40Z</time>
      </trkpt>
      <trkpt lat="44.60912" lon="0.88829">
        <ele>191.92</ele>
        <time>2013-11-24T08:10:43Z</time>
      </trkpt>
      <trkpt lat="44.60951" lon="0.8879">
        <ele>190.96</ele>
        <time>2013-11-24T08:10:52Z</time>
      </trkpt>
      <trkpt lat="44.60966" lon="0.88781">
        <ele>190.96</ele>
        <time>2013-11-24T08:10:55Z</time>
      </trkpt>
      <trkpt lat="44.60984" lon="0.88766">
        <ele>190.48</ele>
        <time>2013-11-24T08:10:59Z</time>
      </trkpt>
      <trkpt lat="44.61018" lon="0.88739">
        <ele>190.48</ele>
        <time>2013-11-24T08:11:07Z</time>
      </trkpt>
      <trkpt lat="44.61035" lon="0.88698">
        <ele>190.48</ele>
        <time>2013-11-24T08:11:15Z</time>
      </trkpt>
      <trkpt lat="44.61037" lon="0.88694">
        <ele>190.48</ele>
        <time>2013-11-24T08:11:16Z</time>
      </trkpt>
      <trkpt lat="44.61043" lon="0.88631">
        <ele>189.52</ele>
        <time>2013-11-24T08:11:30Z</time>
      </trkpt>
      <trkpt lat="44.61045" lon="0.88588">
        <ele>189.04</ele>
        <time>2013-11-24T08:11:42Z</time>
      </trkpt>
      <trkpt lat="44.61044" lon="0.88577">
        <ele>193.36</ele>
        <time>2013-11-24T08:12:07Z</time>
      </trkpt>
      <trkpt lat="44.61039" lon="0.88576">
        <ele>194.8</ele>
        <time>2013-11-24T08:12:32Z</time>
      </trkpt>
      <trkpt lat="44.61038" lon="0.88575">
        <ele>196.73</ele>
        <time>2013-11-24T08:12:49Z</time>
      </trkpt>
      <trkpt lat="44.61041" lon="0.88575">
        <ele>196.25</ele>
        <time>2013-11-24T08:12:56Z</time>
      </trkpt>
      <trkpt lat="44.61068" lon="0.88605">
        <ele>196.25</ele>
        <time>2013-11-24T08:13:07Z</time>
      </trkpt>
      <trkpt lat="44.6109" lon="0.88632">
        <ele>194.8</ele>
        <time>2013-11-24T08:13:12Z</time>
      </trkpt>
      <trkpt lat="44.61138" lon="0.88675">
        <ele>195.77</ele>
        <time>2013-11-24T08:13:25Z</time>
      </trkpt>
      <trkpt lat="44.61145" lon="0.8868">
        <ele>195.77</ele>
        <time>2013-11-24T08:13:27Z</time>
      </trkpt>
      <trkpt lat="44.61199" lon="0.88732">
        <ele>194.32</ele>
        <time>2013-11-24T08:13:41Z</time>
      </trkpt>
      <trkpt lat="44.6124" lon="0.88773">
        <ele>192.88</ele>
        <time>2013-11-24T08:13:53Z</time>
      </trkpt>
      <trkpt lat="44.61299" lon="0.88818">
        <ele>188.08</ele>
        <time>2013-11-24T08:14:07Z</time>
      </trkpt>
      <trkpt lat="44.61351" lon="0.88865">
        <ele>188.56</ele>
        <time>2013-11-24T08:14:20Z</time>
      </trkpt>
      <trkpt lat="44.61404" lon="0.8892">
        <ele>190.96</ele>
        <time>2013-11-24T08:14:36Z</time>
      </trkpt>
      <trkpt lat="44.61436" lon="0.88942">
        <ele>192.88</ele>
        <time>2013-11-24T08:14:46Z</time>
      </trkpt>
      <trkpt lat="44.61483" lon="0.88984">
        <ele>195.28</ele>
        <time>2013-11-24T08:15:01Z</time>
      </trkpt>
      <trkpt lat="44.61521" lon="0.89022">
        <ele>196.73</ele>
        <time>2013-11-24T08:15:14Z</time>
      </trkpt>
      <trkpt lat="44.61542" lon="0.89076">
        <ele>197.21</ele>
        <time>2013-11-24T08:15:28Z</time>
      </trkpt>
      <trkpt lat="44.61552" lon="0.89112">
        <ele>196.73</ele>
        <time>2013-11-24T08:15:39Z</time>
      </trkpt>
      <trkpt lat="44.61569" lon="0.89102">
        <ele>195.77</ele>
        <time>2013-11-24T08:15:48Z</time>
      </trkpt>
      <trkpt lat="44.61597" lon="0.89091">
        <ele>201.05</ele>
        <time>2013-11-24T08:15:59Z</time>
      </trkpt>
      <trkpt lat="44.61627" lon="0.89091">
        <ele>206.82</ele>
        <time>2013-11-24T08:16:12Z</time>
      </trkpt>
      <trkpt lat="44.61656" lon="0.89096">
        <ele>212.11</ele>
        <time>2013-11-24T08:16:25Z</time>
      </trkpt>
      <trkpt lat="44.61659" lon="0.89093">
        <ele>213.07</ele>
        <time>2013-11-24T08:16:27Z</time>
      </trkpt>
      <trkpt lat="44.61671" lon="0.89054">
        <ele>211.15</ele>
        <time>2013-11-24T08:16:39Z</time>
      </trkpt>
      <trkpt lat="44.61673" lon="0.89042">
        <ele>209.7</ele>
        <time>2013-11-24T08:16:41Z</time>
      </trkpt>
      <trkpt lat="44.6168" lon="0.88976">
        <ele>202.98</ele>
        <time>2013-11-24T08:16:54Z</time>
      </trkpt>
      <trkpt lat="44.61694" lon="0.88945">
        <ele>203.46</ele>
        <time>2013-11-24T08:17:04Z</time>
      </trkpt>
      <trkpt lat="44.61716" lon="0.88916">
        <ele>203.94</ele>
        <time>2013-11-24T08:17:14Z</time>
      </trkpt>
      <trkpt lat="44.61742" lon="0.88944">
        <ele>206.82</ele>
        <time>2013-11-24T08:17:28Z</time>
      </trkpt>
      <trkpt lat="44.61773" lon="0.88985">
        <ele>208.26</ele>
        <time>2013-11-24T08:17:44Z</time>
      </trkpt>
      <trkpt lat="44.61797" lon="0.89011">
        <ele>209.22</ele>
        <time>2013-11-24T08:17:55Z</time>
      </trkpt>
      <trkpt lat="44.61817" lon="0.89034">
        <ele>210.67</ele>
        <time>2013-11-24T08:18:06Z</time>
      </trkpt>
      <trkpt lat="44.61819" lon="0.89034">
        <ele>210.67</ele>
        <time>2013-11-24T08:18:07Z</time>
      </trkpt>
      <trkpt lat="44.61838" lon="0.89021">
        <ele>211.15</ele>
        <time>2013-11-24T08:18:16Z</time>
      </trkpt>
      <trkpt lat="44.61846" lon="0.89029">
        <ele>212.59</ele>
        <time>2013-11-24T08:18:20Z</time>
      </trkpt>
      <trkpt lat="44.61867" lon="0.89068">
        <ele>215.47</ele>
        <time>2013-11-24T08:18:33Z</time>
      </trkpt>
      <trkpt lat="44.61874" lon="0.8908">
        <ele>215.47</ele>
        <time>2013-11-24T08:18:39Z</time>
      </trkpt>
      <trkpt lat="44.61898" lon="0.89059">
        <ele>217.88</ele>
        <time>2013-11-24T08:18:51Z</time>
      </trkpt>
      <trkpt lat="44.61921" lon="0.89034">
        <ele>220.76</ele>
        <time>2013-11-24T08:19:04Z</time>
      </trkpt>
      <trkpt lat="44.61939" lon="0.89014">
        <ele>222.2</ele>
        <time>2013-11-24T08:19:15Z</time>
      </trkpt>
      <trkpt lat="44.61964" lon="0.88988">
        <ele>225.57</ele>
        <time>2013-11-24T08:19:28Z</time>
      </trkpt>
      <trkpt lat="44.61963" lon="0.88978">
        <ele>226.53</ele>
        <time>2013-11-24T08:19:32Z</time>
      </trkpt>
      <trkpt lat="44.6196" lon="0.88964">
        <ele>227.49</ele>
        <time>2013-11-24T08:19:38Z</time>
      </trkpt>
      <trkpt lat="44.61964" lon="0.88941">
        <ele>226.53</ele>
        <time>2013-11-24T08:19:49Z</time>
      </trkpt>
      <trkpt lat="44.61977" lon="0.88897">
        <ele>224.61</ele>
        <time>2013-11-24T08:20:04Z</time>
      </trkpt>
      <trkpt lat="44.61989" lon="0.88881">
        <ele>224.12</ele>
        <time>2013-11-24T08:20:09Z</time>
      </trkpt>
      <trkpt lat="44.61997" lon="0.88875">
        <ele>223.16</ele>
        <time>2013-11-24T08:20:11Z</time>
      </trkpt>
      <trkpt lat="44.6202" lon="0.88864">
        <ele>220.76</ele>
        <time>2013-11-24T08:20:16Z</time>
      </trkpt>
      <trkpt lat="44.62032" lon="0.8886">
        <ele>219.8</ele>
        <time>2013-11-24T08:20:19Z</time>
      </trkpt>
      <trkpt lat="44.62051" lon="0.88831">
        <ele>218.36</ele>
        <time>2013-11-24T08:20:27Z</time>
      </trkpt>
      <trkpt lat="44.6208" lon="0.88821">
        <ele>215.95</ele>
        <time>2013-11-24T08:20:37Z</time>
      </trkpt>
      <trkpt lat="44.62091" lon="0.88815">
        <ele>214.99</ele>
        <time>2013-11-24T08:20:40Z</time>
      </trkpt>
      <trkpt lat="44.62112" lon="0.88794">
        <ele>213.55</ele>
        <time>2013-11-24T08:20:45Z</time>
      </trkpt>
      <trkpt lat="44.62141" lon="0.88769">
        <ele>210.67</ele>
        <time>2013-11-24T08:20:51Z</time>
      </trkpt>
      <trkpt lat="44.62162" lon="0.88764">
        <ele>206.82</ele>
        <time>2013-11-24T08:20:56Z</time>
      </trkpt>
      <trkpt lat="44.62176" lon="0.88766">
        <ele>204.42</ele>
        <time>2013-11-24T08:20:59Z</time>
      </trkpt>
      <trkpt lat="44.62187" lon="0.88766">
        <ele>203.46</ele>
        <time>2013-11-24T08:21:01Z</time>
      </trkpt>
      <trkpt lat="44.62206" lon="0.88741">
        <ele>200.57</ele>
        <time>2013-11-24T08:21:08Z</time>
      </trkpt>
      <trkpt lat="44.62207" lon="0.88729">
        <ele>199.61</ele>
        <time>2013-11-24T08:21:11Z</time>
      </trkpt>
      <trkpt lat="44.62205" lon="0.88707">
        <ele>198.17</ele>
        <time>2013-11-24T08:21:17Z</time>
      </trkpt>
      <trkpt lat="44.62201" lon="0.88698">
        <ele>200.09</ele>
        <time>2013-11-24T08:21:31Z</time>
      </trkpt>
      <trkpt lat="44.62201" lon="0.88697">
        <ele>200.57</ele>
        <time>2013-11-24T08:21:38Z</time>
      </trkpt>
      <trkpt lat="44.62201" lon="0.88684">
        <ele>199.61</ele>
        <time>2013-11-24T08:21:42Z</time>
      </trkpt>
      <trkpt lat="44.62197" lon="0.88631">
        <ele>192.4</ele>
        <time>2013-11-24T08:21:53Z</time>
      </trkpt>
      <trkpt lat="44.62195" lon="0.88609">
        <ele>189.52</ele>
        <time>2013-11-24T08:21:59Z</time>
      </trkpt>
      <trkpt lat="44.62199" lon="0.88581">
        <ele>187.11</ele>
        <time>2013-11-24T08:22:03Z</time>
      </trkpt>
      <trkpt lat="44.62196" lon="0.88552">
        <ele>183.75</ele>
        <time>2013-11-24T08:22:08Z</time>
      </trkpt>
      <trkpt lat="44.62183" lon="0.88538">
        <ele>181.35</ele>
        <time>2013-11-24T08:22:11Z</time>
      </trkpt>
      <trkpt lat="44.62159" lon="0.8851">
        <ele>177.5</ele>
        <time>2013-11-24T08:22:19Z</time>
      </trkpt>
      <trkpt lat="44.62162" lon="0.88499">
        <ele>175.58</ele>
        <time>2013-11-24T08:22:22Z</time>
      </trkpt>
      <trkpt lat="44.62167" lon="0.88487">
        <ele>173.66</ele>
        <time>2013-11-24T08:22:24Z</time>
      </trkpt>
      <trkpt lat="44.62182" lon="0.88407">
        <ele>168.85</ele>
        <time>2013-11-24T08:22:34Z</time>
      </trkpt>
      <trkpt lat="44.62202" lon="0.88389">
        <ele>168.85</ele>
        <time>2013-11-24T08:22:39Z</time>
      </trkpt>
      <trkpt lat="44.6223" lon="0.88353">
        <ele>170.77</ele>
        <time>2013-11-24T08:22:50Z</time>
      </trkpt>
      <trkpt lat="44.62232" lon="0.88327">
        <ele>169.33</ele>
        <time>2013-11-24T08:22:58Z</time>
      </trkpt>
      <trkpt lat="44.62211" lon="0.88318">
        <ele>168.37</ele>
        <time>2013-11-24T08:23:05Z</time>
      </trkpt>
      <trkpt lat="44.62173" lon="0.88325">
        <ele>168.85</ele>
        <time>2013-11-24T08:23:14Z</time>
      </trkpt>
      <trkpt lat="44.62159" lon="0.88322">
        <ele>168.85</ele>
        <time>2013-11-24T08:23:17Z</time>
      </trkpt>
      <trkpt lat="44.62137" lon="0.88305">
        <ele>168.37</ele>
        <time>2013-11-24T08:23:22Z</time>
      </trkpt>
      <trkpt lat="44.62129" lon="0.88282">
        <ele>167.89</ele>
        <time>2013-11-24T08:23:26Z</time>
      </trkpt>
      <trkpt lat="44.62121" lon="0.88238">
        <ele>166.93</ele>
        <time>2013-11-24T08:23:35Z</time>
      </trkpt>
      <trkpt lat="44.62113" lon="0.88208">
        <ele>166.93</ele>
        <time>2013-11-24T08:23:41Z</time>
      </trkpt>
      <trkpt lat="44.62096" lon="0.88156">
        <ele>168.85</ele>
        <time>2013-11-24T08:23:52Z</time>
      </trkpt>
      <trkpt lat="44.62084" lon="0.88121">
        <ele>169.81</ele>
        <time>2013-11-24T08:23:59Z</time>
      </trkpt>
      <trkpt lat="44.62051" lon="0.88068">
        <ele>172.69</ele>
        <time>2013-11-24T08:24:11Z</time>
      </trkpt>
      <trkpt lat="44.62049" lon="0.88038">
        <ele>173.66</ele>
        <time>2013-11-24T08:24:17Z</time>
      </trkpt>
      <trkpt lat="44.62033" lon="0.87975">
        <ele>173.17</ele>
        <time>2013-11-24T08:24:28Z</time>
      </trkpt>
      <trkpt lat="44.62008" lon="0.8792">
        <ele>176.54</ele>
        <time>2013-11-24T08:24:38Z</time>
      </trkpt>
      <trkpt lat="44.62006" lon="0.87913">
        <ele>176.54</ele>
        <time>2013-11-24T08:24:39Z</time>
      </trkpt>
      <trkpt lat="44.61998" lon="0.87894">
        <ele>177.02</ele>
        <time>2013-11-24T08:24:42Z</time>
      </trkpt>
      <trkpt lat="44.61988" lon="0.87862">
        <ele>176.06</ele>
        <time>2013-11-24T08:24:48Z</time>
      </trkpt>
      <trkpt lat="44.61993" lon="0.87855">
        <ele>175.58</ele>
        <time>2013-11-24T08:24:52Z</time>
      </trkpt>
      <trkpt lat="44.62044" lon="0.87875">
        <ele>173.17</ele>
        <time>2013-11-24T08:25:07Z</time>
      </trkpt>
      <trkpt lat="44.62095" lon="0.87888">
        <ele>171.73</ele>
        <time>2013-11-24T08:25:23Z</time>
      </trkpt>
      <trkpt lat="44.62139" lon="0.87867">
        <ele>172.21</ele>
        <time>2013-11-24T08:25:38Z</time>
      </trkpt>
      <trkpt lat="44.62193" lon="0.87813">
        <ele>172.21</ele>
        <time>2013-11-24T08:25:58Z</time>
      </trkpt>
      <trkpt lat="44.6225" lon="0.87757">
        <ele>171.73</ele>
        <time>2013-11-24T08:26:17Z</time>
      </trkpt>
      <trkpt lat="44.6229" lon="0.87716">
        <ele>174.14</ele>
        <time>2013-11-24T08:26:30Z</time>
      </trkpt>
      <trkpt lat="44.62296" lon="0.87709">
        <ele>174.14</ele>
        <time>2013-11-24T08:26:32Z</time>
      </trkpt>
      <trkpt lat="44.62347" lon="0.87657">
        <ele>175.1</ele>
        <time>2013-11-24T08:26:48Z</time>
      </trkpt>
      <trkpt lat="44.62395" lon="0.87621">
        <ele>177.5</ele>
        <time>2013-11-24T08:27:04Z</time>
      </trkpt>
      <trkpt lat="44.62406" lon="0.87616">
        <ele>179.42</ele>
        <time>2013-11-24T08:27:08Z</time>
      </trkpt>
      <trkpt lat="44.62412" lon="0.87603">
        <ele>179.9</ele>
        <time>2013-11-24T08:27:12Z</time>
      </trkpt>
      <trkpt lat="44.62398" lon="0.87558">
        <ele>179.42</ele>
        <time>2013-11-24T08:27:21Z</time>
      </trkpt>
      <trkpt lat="44.62365" lon="0.87529">
        <ele>180.38</ele>
        <time>2013-11-24T08:27:30Z</time>
      </trkpt>
      <trkpt lat="44.62353" lon="0.875">
        <ele>182.79</ele>
        <time>2013-11-24T08:27:36Z</time>
      </trkpt>
      <trkpt lat="44.62323" lon="0.87481">
        <ele>186.63</ele>
        <time>2013-11-24T08:27:47Z</time>
      </trkpt>
      <trkpt lat="44.62287" lon="0.87458">
        <ele>189.52</ele>
        <time>2013-11-24T08:28:00Z</time>
      </trkpt>
      <trkpt lat="44.6225" lon="0.87447">
        <ele>189.52</ele>
        <time>2013-11-24T08:28:11Z</time>
      </trkpt>
      <trkpt lat="44.62231" lon="0.87441">
        <ele>189.04</ele>
        <time>2013-11-24T08:28:16Z</time>
      </trkpt>
      <trkpt lat="44.62188" lon="0.87433">
        <ele>188.56</ele>
        <time>2013-11-24T08:28:28Z</time>
      </trkpt>
      <trkpt lat="44.62161" lon="0.87432">
        <ele>191.92</ele>
        <time>2013-11-24T08:28:36Z</time>
      </trkpt>
      <trkpt lat="44.62155" lon="0.87432">
        <ele>192.88</ele>
        <time>2013-11-24T08:28:38Z</time>
      </trkpt>
      <trkpt lat="44.62117" lon="0.87433">
        <ele>195.28</ele>
        <time>2013-11-24T08:28:50Z</time>
      </trkpt>
      <trkpt lat="44.62081" lon="0.87431">
        <ele>194.8</ele>
        <time>2013-11-24T08:29:00Z</time>
      </trkpt>
      <trkpt lat="44.62051" lon="0.87422">
        <ele>196.73</ele>
        <time>2013-11-24T08:29:10Z</time>
      </trkpt>
      <trkpt lat="44.6202" lon="0.87418">
        <ele>199.61</ele>
        <time>2013-11-24T08:29:20Z</time>
      </trkpt>
      <trkpt lat="44.6198" lon="0.87405">
        <ele>201.05</ele>
        <time>2013-11-24T08:29:33Z</time>
      </trkpt>
      <trkpt lat="44.61958" lon="0.87391">
        <ele>200.57</ele>
        <time>2013-11-24T08:29:39Z</time>
      </trkpt>
      <trkpt lat="44.61949" lon="0.87387">
        <ele>200.09</ele>
        <time>2013-11-24T08:29:41Z</time>
      </trkpt>
      <trkpt lat="44.61902" lon="0.87397">
        <ele>198.65</ele>
        <time>2013-11-24T08:29:50Z</time>
      </trkpt>
      <trkpt lat="44.61898" lon="0.874">
        <ele>198.65</ele>
        <time>2013-11-24T08:29:51Z</time>
      </trkpt>
      <trkpt lat="44.61879" lon="0.87414">
        <ele>196.25</ele>
        <time>2013-11-24T08:29:55Z</time>
      </trkpt>
      <trkpt lat="44.61847" lon="0.87436">
        <ele>192.4</ele>
        <time>2013-11-24T08:30:03Z</time>
      </trkpt>
      <trkpt lat="44.61828" lon="0.87451">
        <ele>189.04</ele>
        <time>2013-11-24T08:30:07Z</time>
      </trkpt>
      <trkpt lat="44.61788" lon="0.87457">
        <ele>183.27</ele>
        <time>2013-11-24T08:30:15Z</time>
      </trkpt>
      <trkpt lat="44.61766" lon="0.87464">
        <ele>181.35</ele>
        <time>2013-11-24T08:30:19Z</time>
      </trkpt>
      <trkpt lat="44.61739" lon="0.87461">
        <ele>179.9</ele>
        <time>2013-11-24T08:30:23Z</time>
      </trkpt>
      <trkpt lat="44.61708" lon="0.87439">
        <ele>178.94</ele>
        <time>2013-11-24T08:30:28Z</time>
      </trkpt>
      <trkpt lat="44.6165" lon="0.87403">
        <ele>176.06</ele>
        <time>2013-11-24T08:30:36Z</time>
      </trkpt>
      <trkpt lat="44.61625" lon="0.87386">
        <ele>177.02</ele>
        <time>2013-11-24T08:30:41Z</time>
      </trkpt>
      <trkpt lat="44.61608" lon="0.87373">
        <ele>178.94</ele>
        <time>2013-11-24T08:30:48Z</time>
      </trkpt>
      <trkpt lat="44.61597" lon="0.87371">
        <ele>176.06</ele>
        <time>2013-11-24T08:30:59Z</time>
      </trkpt>
      <trkpt lat="44.61595" lon="0.87369">
        <ele>173.17</ele>
        <time>2013-11-24T08:31:23Z</time>
      </trkpt>
      <trkpt lat="44.61594" lon="0.87369">
        <ele>173.66</ele>
        <time>2013-11-24T08:31:45Z</time>
      </trkpt>
      <trkpt lat="44.61594" lon="0.87368">
        <ele>173.66</ele>
        <time>2013-11-24T08:32:06Z</time>
      </trkpt>
      <trkpt lat="44.61594" lon="0.87368">
        <ele>173.66</ele>
        <time>2013-11-24T08:32:07Z</time>
      </trkpt>
      <trkpt lat="44.61581" lon="0.87362">
        <ele>172.69</ele>
        <time>2013-11-24T08:32:14Z</time>
      </trkpt>
      <trkpt lat="44.61531" lon="0.87331">
        <ele>173.17</ele>
        <time>2013-11-24T08:32:29Z</time>
      </trkpt>
      <trkpt lat="44.61496" lon="0.87316">
        <ele>173.66</ele>
        <time>2013-11-24T08:32:38Z</time>
      </trkpt>
      <trkpt lat="44.61479" lon="0.87308">
        <ele>173.66</ele>
        <time>2013-11-24T08:32:42Z</time>
      </trkpt>
      <trkpt lat="44.61451" lon="0.87299">
        <ele>174.62</ele>
        <time>2013-11-24T08:32:49Z</time>
      </trkpt>
      <trkpt lat="44.61434" lon="0.873">
        <ele>176.06</ele>
        <time>2013-11-24T08:32:53Z</time>
      </trkpt>
      <trkpt lat="44.61386" lon="0.8728">
        <ele>179.9</ele>
        <time>2013-11-24T08:33:05Z</time>
      </trkpt>
      <trkpt lat="44.61362" lon="0.87271">
        <ele>179.42</ele>
        <time>2013-11-24T08:33:10Z</time>
      </trkpt>
      <trkpt lat="44.61352" lon="0.8727">
        <ele>179.9</ele>
        <time>2013-11-24T08:33:12Z</time>
      </trkpt>
      <trkpt lat="44.61341" lon="0.87271">
        <ele>180.38</ele>
        <time>2013-11-24T08:33:14Z</time>
      </trkpt>
      <trkpt lat="44.61317" lon="0.87277">
        <ele>180.87</ele>
        <time>2013-11-24T08:33:19Z</time>
      </trkpt>
      <trkpt lat="44.61295" lon="0.87285">
        <ele>181.35</ele>
        <time>2013-11-24T08:33:24Z</time>
      </trkpt>
      <trkpt lat="44.61283" lon="0.87287">
        <ele>181.83</ele>
        <time>2013-11-24T08:33:27Z</time>
      </trkpt>
      <trkpt lat="44.6127" lon="0.87287">
        <ele>182.31</ele>
        <time>2013-11-24T08:33:30Z</time>
      </trkpt>
      <trkpt lat="44.61252" lon="0.87281">
        <ele>182.79</ele>
        <time>2013-11-24T08:33:34Z</time>
      </trkpt>
      <trkpt lat="44.61241" lon="0.87274">
        <ele>182.79</ele>
        <time>2013-11-24T08:33:37Z</time>
      </trkpt>
      <trkpt lat="44.61177" lon="0.87227">
        <ele>180.38</ele>
        <time>2013-11-24T08:33:51Z</time>
      </trkpt>
      <trkpt lat="44.61136" lon="0.87202">
        <ele>184.23</ele>
        <time>2013-11-24T08:34:02Z</time>
      </trkpt>
      <trkpt lat="44.61077" lon="0.87169">
        <ele>179.42</ele>
        <time>2013-11-24T08:34:13Z</time>
      </trkpt>
      <trkpt lat="44.61056" lon="0.87155">
        <ele>177.02</ele>
        <time>2013-11-24T08:34:16Z</time>
      </trkpt>
      <trkpt lat="44.6104" lon="0.87146">
        <ele>174.62</ele>
        <time>2013-11-24T08:34:20Z</time>
      </trkpt>
      <trkpt lat="44.61037" lon="0.87135">
        <ele>171.25</ele>
        <time>2013-11-24T08:34:24Z</time>
      </trkpt>
      <trkpt lat="44.61038" lon="0.87096">
        <ele>171.73</ele>
        <time>2013-11-24T08:34:35Z</time>
      </trkpt>
      <trkpt lat="44.61036" lon="0.87083">
        <ele>172.21</ele>
        <time>2013-11-24T08:34:39Z</time>
      </trkpt>
      <trkpt lat="44.61033" lon="0.87043">
        <ele>177.98</ele>
        <time>2013-11-24T08:34:51Z</time>
      </trkpt>
      <trkpt lat="44.61042" lon="0.8701">
        <ele>181.35</ele>
        <time>2013-11-24T08:34:59Z</time>
      </trkpt>
      <trkpt lat="44.61045" lon="0.8699">
        <ele>180.38</ele>
        <time>2013-11-24T08:35:03Z</time>
      </trkpt>
      <trkpt lat="44.61055" lon="0.86937">
        <ele>177.5</ele>
        <time>2013-11-24T08:35:14Z</time>
      </trkpt>
      <trkpt lat="44.61071" lon="0.86902">
        <ele>177.02</ele>
        <time>2013-11-24T08:35:26Z</time>
      </trkpt>
      <trkpt lat="44.61077" lon="0.86883">
        <ele>176.54</ele>
        <time>2013-11-24T08:35:33Z</time>
      </trkpt>
      <trkpt lat="44.61077" lon="0.86871">
        <ele>177.98</ele>
        <time>2013-11-24T08:35:37Z</time>
      </trkpt>
      <trkpt lat="44.6108" lon="0.86846">
        <ele>178.94</ele>
        <time>2013-11-24T08:35:44Z</time>
      </trkpt>
      <trkpt lat="44.61097" lon="0.86813">
        <ele>180.38</ele>
        <time>2013-11-24T08:35:55Z</time>
      </trkpt>
      <trkpt lat="44.61101" lon="0.86803">
        <ele>180.38</ele>
        <time>2013-11-24T08:35:58Z</time>
      </trkpt>
      <trkpt lat="44.6111" lon="0.86754">
        <ele>180.87</ele>
        <time>2013-11-24T08:36:11Z</time>
      </trkpt>
      <trkpt lat="44.61114" lon="0.86728">
        <ele>180.87</ele>
        <time>2013-11-24T08:36:18Z</time>
      </trkpt>
      <trkpt lat="44.6112" lon="0.86708">
        <ele>179.42</ele>
        <time>2013-11-24T08:36:27Z</time>
      </trkpt>
      <trkpt lat="44.61124" lon="0.86686">
        <ele>181.35</ele>
        <time>2013-11-24T08:36:32Z</time>
      </trkpt>
      <trkpt lat="44.61128" lon="0.8668">
        <ele>181.35</ele>
        <time>2013-11-24T08:36:36Z</time>
      </trkpt>
      <trkpt lat="44.61133" lon="0.86663">
        <ele>181.83</ele>
        <time>2013-11-24T08:36:42Z</time>
      </trkpt>
      <trkpt lat="44.61139" lon="0.86612">
        <ele>184.23</ele>
        <time>2013-11-24T08:36:54Z</time>
      </trkpt>
      <trkpt lat="44.61146" lon="0.86595">
        <ele>185.67</ele>
        <time>2013-11-24T08:37:01Z</time>
      </trkpt>
      <trkpt lat="44.6115" lon="0.86579">
        <ele>187.11</ele>
        <time>2013-11-24T08:37:08Z</time>
      </trkpt>
      <trkpt lat="44.61163" lon="0.86526">
        <ele>185.19</ele>
        <time>2013-11-24T08:37:26Z</time>
      </trkpt>
      <trkpt lat="44.61178" lon="0.86501">
        <ele>185.67</ele>
        <time>2013-11-24T08:37:39Z</time>
      </trkpt>
      <trkpt lat="44.61178" lon="0.86498">
        <ele>185.67</ele>
        <time>2013-11-24T08:37:50Z</time>
      </trkpt>
      <trkpt lat="44.61192" lon="0.86483">
        <ele>185.67</ele>
        <time>2013-11-24T08:38:02Z</time>
      </trkpt>
      <trkpt lat="44.61226" lon="0.86436">
        <ele>186.15</ele>
        <time>2013-11-24T08:38:17Z</time>
      </trkpt>
      <trkpt lat="44.61249" lon="0.86408">
        <ele>186.15</ele>
        <time>2013-11-24T08:38:26Z</time>
      </trkpt>
      <trkpt lat="44.61266" lon="0.86424">
        <ele>187.59</ele>
        <time>2013-11-24T08:38:32Z</time>
      </trkpt>
      <trkpt lat="44.61324" lon="0.86475">
        <ele>191.44</ele>
        <time>2013-11-24T08:38:49Z</time>
      </trkpt>
      <trkpt lat="44.61374" lon="0.86526">
        <ele>192.88</ele>
        <time>2013-11-24T08:39:04Z</time>
      </trkpt>
      <trkpt lat="44.61382" lon="0.86519">
        <ele>191.92</ele>
        <time>2013-11-24T08:39:08Z</time>
      </trkpt>
      <trkpt lat="44.61385" lon="0.86508">
        <ele>190.96</ele>
        <time>2013-11-24T08:39:10Z</time>
      </trkpt>
      <trkpt lat="44.61412" lon="0.86462">
        <ele>188.08</ele>
        <time>2013-11-24T08:39:19Z</time>
      </trkpt>
      <trkpt lat="44.61429" lon="0.8643">
        <ele>185.19</ele>
        <time>2013-11-24T08:39:24Z</time>
      </trkpt>
      <trkpt lat="44.61445" lon="0.86408">
        <ele>182.31</ele>
        <time>2013-11-24T08:39:27Z</time>
      </trkpt>
      <trkpt lat="44.61458" lon="0.86376">
        <ele>179.42</ele>
        <time>2013-11-24T08:39:31Z</time>
      </trkpt>
      <trkpt lat="44.61467" lon="0.86336">
        <ele>177.5</ele>
        <time>2013-11-24T08:39:38Z</time>
      </trkpt>
      <trkpt lat="44.61487" lon="0.86304">
        <ele>176.06</ele>
        <time>2013-11-24T08:39:45Z</time>
      </trkpt>
      <trkpt lat="44.61512" lon="0.86262">
        <ele>173.66</ele>
        <time>2013-11-24T08:39:52Z</time>
      </trkpt>
      <trkpt lat="44.61518" lon="0.86248">
        <ele>173.17</ele>
        <time>2013-11-24T08:39:54Z</time>
      </trkpt>
      <trkpt lat="44.6155" lon="0.86192">
        <ele>171.25</ele>
        <time>2013-11-24T08:40:02Z</time>
      </trkpt>
      <trkpt lat="44.61572" lon="0.86158">
        <ele>169.33</ele>
        <time>2013-11-24T08:40:07Z</time>
      </trkpt>
      <trkpt lat="44.61602" lon="0.86116">
        <ele>167.41</ele>
        <time>2013-11-24T08:40:14Z</time>
      </trkpt>
      <trkpt lat="44.61637" lon="0.86065">
        <ele>164.52</ele>
        <time>2013-11-24T08:40:22Z</time>
      </trkpt>
      <trkpt lat="44.61648" lon="0.86047">
        <ele>163.56</ele>
        <time>2013-11-24T08:40:25Z</time>
      </trkpt>
      <trkpt lat="44.61637" lon="0.86024">
        <ele>163.56</ele>
        <time>2013-11-24T08:40:35Z</time>
      </trkpt>
      <trkpt lat="44.61602" lon="0.85993">
        <ele>163.08</ele>
        <time>2013-11-24T08:40:47Z</time>
      </trkpt>
      <trkpt lat="44.61583" lon="0.8597">
        <ele>162.6</ele>
        <time>2013-11-24T08:40:52Z</time>
      </trkpt>
      <trkpt lat="44.61575" lon="0.85957">
        <ele>162.6</ele>
        <time>2013-11-24T08:40:55Z</time>
      </trkpt>
      <trkpt lat="44.61576" lon="0.85944">
        <ele>162.12</ele>
        <time>2013-11-24T08:41:00Z</time>
      </trkpt>
      <trkpt lat="44.61606" lon="0.85904">
        <ele>161.64</ele>
        <time>2013-11-24T08:41:13Z</time>
      </trkpt>
      <trkpt lat="44.61613" lon="0.85892">
        <ele>162.6</ele>
        <time>2013-11-24T08:41:20Z</time>
      </trkpt>
      <trkpt lat="44.61624" lon="0.85881">
        <ele>164.04</ele>
        <time>2013-11-24T08:41:34Z</time>
      </trkpt>
      <trkpt lat="44.61625" lon="0.85879">
        <ele>165.48</ele>
        <time>2013-11-24T08:41:56Z</time>
      </trkpt>
      <trkpt lat="44.61626" lon="0.85877">
        <ele>167.89</ele>
        <time>2013-11-24T08:42:14Z</time>
      </trkpt>
      <trkpt lat="44.6163" lon="0.85876">
        <ele>169.33</ele>
        <time>2013-11-24T08:42:24Z</time>
      </trkpt>
      <trkpt lat="44.61642" lon="0.85872">
        <ele>175.1</ele>
        <time>2013-11-24T08:42:39Z</time>
      </trkpt>
      <trkpt lat="44.61656" lon="0.85871">
        <ele>178.46</ele>
        <time>2013-11-24T08:42:52Z</time>
      </trkpt>
      <trkpt lat="44.6166" lon="0.85868">
        <ele>181.35</ele>
        <time>2013-11-24T08:43:06Z</time>
      </trkpt>
      <trkpt lat="44.61659" lon="0.85866">
        <ele>181.83</ele>
        <time>2013-11-24T08:43:27Z</time>
      </trkpt>
      <trkpt lat="44.61661" lon="0.85867">
        <ele>180.87</ele>
        <time>2013-11-24T08:43:52Z</time>
      </trkpt>
      <trkpt lat="44.61659" lon="0.85863">
        <ele>179.9</ele>
        <time>2013-11-24T08:44:09Z</time>
      </trkpt>
      <trkpt lat="44.61657" lon="0.85855">
        <ele>180.38</ele>
        <time>2013-11-24T08:44:13Z</time>
      </trkpt>
      <trkpt lat="44.6166" lon="0.85807">
        <ele>180.87</ele>
        <time>2013-11-24T08:44:25Z</time>
      </trkpt>
      <trkpt lat="44.61661" lon="0.85802">
        <ele>180.38</ele>
        <time>2013-11-24T08:44:26Z</time>
      </trkpt>
      <trkpt lat="44.61664" lon="0.8578">
        <ele>178.94</ele>
        <time>2013-11-24T08:44:29Z</time>
      </trkpt>
      <trkpt lat="44.61666" lon="0.85766">
        <ele>177.5</ele>
        <time>2013-11-24T08:44:31Z</time>
      </trkpt>
      <trkpt lat="44.61668" lon="0.85751">
        <ele>177.02</ele>
        <time>2013-11-24T08:44:33Z</time>
      </trkpt>
      <trkpt lat="44.61696" lon="0.8566">
        <ele>167.41</ele>
        <time>2013-11-24T08:44:44Z</time>
      </trkpt>
      <trkpt lat="44.61706" lon="0.85612">
        <ele>159.24</ele>
        <time>2013-11-24T08:44:52Z</time>
      </trkpt>
      <trkpt lat="44.61716" lon="0.85586">
        <ele>155.39</ele>
        <time>2013-11-24T08:44:56Z</time>
      </trkpt>
      <trkpt lat="44.6173" lon="0.85546">
        <ele>149.62</ele>
        <time>2013-11-24T08:45:02Z</time>
      </trkpt>
      <trkpt lat="44.61738" lon="0.85504">
        <ele>146.26</ele>
        <time>2013-11-24T08:45:11Z</time>
      </trkpt>
      <trkpt lat="44.61753" lon="0.8549">
        <ele>146.74</ele>
        <time>2013-11-24T08:45:21Z</time>
      </trkpt>
      <trkpt lat="44.61778" lon="0.85487">
        <ele>149.14</ele>
        <time>2013-11-24T08:45:33Z</time>
      </trkpt>
      <trkpt lat="44.61818" lon="0.85479">
        <ele>149.62</ele>
        <time>2013-11-24T08:45:46Z</time>
      </trkpt>
      <trkpt lat="44.61829" lon="0.85469">
        <ele>150.58</ele>
        <time>2013-11-24T08:45:50Z</time>
      </trkpt>
      <trkpt lat="44.61836" lon="0.85463">
        <ele>150.58</ele>
        <time>2013-11-24T08:45:52Z</time>
      </trkpt>
      <trkpt lat="44.61866" lon="0.85448">
        <ele>150.58</ele>
        <time>2013-11-24T08:46:01Z</time>
      </trkpt>
      <trkpt lat="44.61881" lon="0.85396">
        <ele>148.66</ele>
        <time>2013-11-24T08:46:13Z</time>
      </trkpt>
      <trkpt lat="44.61898" lon="0.85351">
        <ele>150.1</ele>
        <time>2013-11-24T08:46:24Z</time>
      </trkpt>
      <trkpt lat="44.61917" lon="0.85306">
        <ele>148.18</ele>
        <time>2013-11-24T08:46:34Z</time>
      </trkpt>
      <trkpt lat="44.61932" lon="0.85289">
        <ele>149.14</ele>
        <time>2013-11-24T08:46:39Z</time>
      </trkpt>
      <trkpt lat="44.61937" lon="0.8528">
        <ele>149.62</ele>
        <time>2013-11-24T08:46:42Z</time>
      </trkpt>
      <trkpt lat="44.61926" lon="0.85246">
        <ele>153.47</ele>
        <time>2013-11-24T08:46:54Z</time>
      </trkpt>
      <trkpt lat="44.61909" lon="0.85194">
        <ele>157.31</ele>
        <time>2013-11-24T08:47:09Z</time>
      </trkpt>
      <trkpt lat="44.61892" lon="0.85153">
        <ele>161.16</ele>
        <time>2013-11-24T08:47:22Z</time>
      </trkpt>
      <trkpt lat="44.61879" lon="0.8512">
        <ele>167.89</ele>
        <time>2013-11-24T08:47:34Z</time>
      </trkpt>
      <trkpt lat="44.61867" lon="0.85086">
        <ele>170.29</ele>
        <time>2013-11-24T08:47:47Z</time>
      </trkpt>
      <trkpt lat="44.61862" lon="0.85075">
        <ele>169.81</ele>
        <time>2013-11-24T08:47:59Z</time>
      </trkpt>
      <trkpt lat="44.61862" lon="0.85075">
        <ele>169.33</ele>
        <time>2013-11-24T08:48:14Z</time>
      </trkpt>
      <trkpt lat="44.61863" lon="0.85076">
        <ele>169.81</ele>
        <time>2013-11-24T08:48:34Z</time>
      </trkpt>
      <trkpt lat="44.61863" lon="0.85076">
        <ele>169.33</ele>
        <time>2013-11-24T08:48:54Z</time>
      </trkpt>
      <trkpt lat="44.61862" lon="0.85076">
        <ele>168.85</ele>
        <time>2013-11-24T08:49:13Z</time>
      </trkpt>
      <trkpt lat="44.6186" lon="0.85074">
        <ele>168.37</ele>
        <time>2013-11-24T08:49:22Z</time>
      </trkpt>
      <trkpt lat="44.61858" lon="0.85066">
        <ele>167.41</ele>
        <time>2013-11-24T08:49:26Z</time>
      </trkpt>
      <trkpt lat="44.61831" lon="0.85">
        <ele>162.6</ele>
        <time>2013-11-24T08:49:36Z</time>
      </trkpt>
      <trkpt lat="44.61789" lon="0.8489">
        <ele>155.39</ele>
        <time>2013-11-24T08:49:45Z</time>
      </trkpt>
      <trkpt lat="44.61769" lon="0.84842">
        <ele>158.27</ele>
        <time>2013-11-24T08:49:52Z</time>
      </trkpt>
      <trkpt lat="44.61751" lon="0.84795">
        <ele>159.24</ele>
        <time>2013-11-24T08:50:01Z</time>
      </trkpt>
      <trkpt lat="44.61739" lon="0.84795">
        <ele>158.27</ele>
        <time>2013-11-24T08:50:06Z</time>
      </trkpt>
      <trkpt lat="44.61707" lon="0.84852">
        <ele>157.31</ele>
        <time>2013-11-24T08:50:22Z</time>
      </trkpt>
      <trkpt lat="44.61688" lon="0.84887">
        <ele>159.24</ele>
        <time>2013-11-24T08:50:32Z</time>
      </trkpt>
      <trkpt lat="44.61655" lon="0.84945">
        <ele>158.75</ele>
        <time>2013-11-24T08:50:48Z</time>
      </trkpt>
      <trkpt lat="44.6162" lon="0.85016">
        <ele>162.12</ele>
        <time>2013-11-24T08:51:06Z</time>
      </trkpt>
      <trkpt lat="44.61592" lon="0.85073">
        <ele>160.2</ele>
        <time>2013-11-24T08:51:21Z</time>
      </trkpt>
      <trkpt lat="44.61577" lon="0.85115">
        <ele>160.2</ele>
        <time>2013-11-24T08:51:31Z</time>
      </trkpt>
      <trkpt lat="44.61583" lon="0.85132">
        <ele>162.12</ele>
        <time>2013-11-24T08:51:35Z</time>
      </trkpt>
      <trkpt lat="44.61613" lon="0.85208">
        <ele>167.41</ele>
        <time>2013-11-24T08:51:50Z</time>
      </trkpt>
      <trkpt lat="44.61637" lon="0.85272">
        <ele>169.81</ele>
        <time>2013-11-24T08:52:04Z</time>
      </trkpt>
      <trkpt lat="44.61659" lon="0.85328">
        <ele>169.33</ele>
        <time>2013-11-24T08:52:16Z</time>
      </trkpt>
      <trkpt lat="44.61691" lon="0.85408">
        <ele>163.56</ele>
        <time>2013-11-24T08:52:26Z</time>
      </trkpt>
      <trkpt lat="44.61702" lon="0.85433">
        <ele>160.2</ele>
        <time>2013-11-24T08:52:29Z</time>
      </trkpt>
      <trkpt lat="44.61693" lon="0.85476">
        <ele>150.58</ele>
        <time>2013-11-24T08:52:36Z</time>
      </trkpt>
      <trkpt lat="44.6169" lon="0.85478">
        <ele>149.14</ele>
        <time>2013-11-24T08:52:37Z</time>
      </trkpt>
      <trkpt lat="44.61682" lon="0.85478">
        <ele>136.64</ele>
        <time>2013-11-24T08:52:47Z</time>
      </trkpt>
      <trkpt lat="44.61671" lon="0.8548">
        <ele>125.59</ele>
        <time>2013-11-24T08:53:07Z</time>
      </trkpt>
      <trkpt lat="44.61635" lon="0.85494">
        <ele>127.51</ele>
        <time>2013-11-24T08:53:19Z</time>
      </trkpt>
      <trkpt lat="44.61604" lon="0.85525">
        <ele>125.59</ele>
        <time>2013-11-24T08:53:31Z</time>
      </trkpt>
      <trkpt lat="44.6157" lon="0.85553">
        <ele>127.03</ele>
        <time>2013-11-24T08:53:46Z</time>
      </trkpt>
      <trkpt lat="44.61568" lon="0.85555">
        <ele>127.03</ele>
        <time>2013-11-24T08:53:47Z</time>
      </trkpt>
      <trkpt lat="44.61552" lon="0.8556">
        <ele>130.88</ele>
        <time>2013-11-24T08:53:55Z</time>
      </trkpt>
      <trkpt lat="44.61526" lon="0.85556">
        <ele>139.05</ele>
        <time>2013-11-24T08:54:08Z</time>
      </trkpt>
      <trkpt lat="44.61506" lon="0.85565">
        <ele>143.85</ele>
        <time>2013-11-24T08:54:20Z</time>
      </trkpt>
      <trkpt lat="44.6149" lon="0.85568">
        <ele>146.26</ele>
        <time>2013-11-24T08:54:27Z</time>
      </trkpt>
      <trkpt lat="44.61467" lon="0.8558">
        <ele>159.24</ele>
        <time>2013-11-24T08:54:40Z</time>
      </trkpt>
      <trkpt lat="44.61447" lon="0.8559">
        <ele>163.08</ele>
        <time>2013-11-24T08:54:50Z</time>
      </trkpt>
      <trkpt lat="44.61432" lon="0.85604">
        <ele>164.52</ele>
        <time>2013-11-24T08:54:59Z</time>
      </trkpt>
      <trkpt lat="44.61419" lon="0.85643">
        <ele>165.48</ele>
        <time>2013-11-24T08:55:14Z</time>
      </trkpt>
      <trkpt lat="44.61409" lon="0.85675">
        <ele>168.37</ele>
        <time>2013-11-24T08:55:28Z</time>
      </trkpt>
      <trkpt lat="44.61409" lon="0.85676">
        <ele>168.37</ele>
        <time>2013-11-24T08:55:29Z</time>
      </trkpt>
      <trkpt lat="44.61405" lon="0.85691">
        <ele>170.29</ele>
        <time>2013-11-24T08:55:37Z</time>
      </trkpt>
      <trkpt lat="44.614" lon="0.85731">
        <ele>171.73</ele>
        <time>2013-11-24T08:55:52Z</time>
      </trkpt>
      <trkpt lat="44.6138" lon="0.85761">
        <ele>171.73</ele>
        <time>2013-11-24T08:56:06Z</time>
      </trkpt>
      <trkpt lat="44.61345" lon="0.85809">
        <ele>168.37</ele>
        <time>2013-11-24T08:56:18Z</time>
      </trkpt>
      <trkpt lat="44.61343" lon="0.85813">
        <ele>167.89</ele>
        <time>2013-11-24T08:56:19Z</time>
      </trkpt>
      <trkpt lat="44.61337" lon="0.85823">
        <ele>167.41</ele>
        <time>2013-11-24T08:56:21Z</time>
      </trkpt>
      <trkpt lat="44.61326" lon="0.85847">
        <ele>165.48</ele>
        <time>2013-11-24T08:56:25Z</time>
      </trkpt>
      <trkpt lat="44.61301" lon="0.85928">
        <ele>158.27</ele>
        <time>2013-11-24T08:56:41Z</time>
      </trkpt>
      <trkpt lat="44.61299" lon="0.85939">
        <ele>157.79</ele>
        <time>2013-11-24T08:56:43Z</time>
      </trkpt>
      <trkpt lat="44.61295" lon="0.85951">
        <ele>156.83</ele>
        <time>2013-11-24T08:56:45Z</time>
      </trkpt>
      <trkpt lat="44.61292" lon="0.85964">
        <ele>155.87</ele>
        <time>2013-11-24T08:56:47Z</time>
      </trkpt>
      <trkpt lat="44.61283" lon="0.85997">
        <ele>153.95</ele>
        <time>2013-11-24T08:56:53Z</time>
      </trkpt>
      <trkpt lat="44.61238" lon="0.86064">
        <ele>165.48</ele>
        <time>2013-11-24T08:57:09Z</time>
      </trkpt>
      <trkpt lat="44.61213" lon="0.86129">
        <ele>171.73</ele>
        <time>2013-11-24T08:57:23Z</time>
      </trkpt>
      <trkpt lat="44.61201" lon="0.8618">
        <ele>170.77</ele>
        <time>2013-11-24T08:57:33Z</time>
      </trkpt>
      <trkpt lat="44.61203" lon="0.8625">
        <ele>175.58</ele>
        <time>2013-11-24T08:57:45Z</time>
      </trkpt>
      <trkpt lat="44.61201" lon="0.86268">
        <ele>175.58</ele>
        <time>2013-11-24T08:57:48Z</time>
      </trkpt>
      <trkpt lat="44.61188" lon="0.86331">
        <ele>177.5</ele>
        <time>2013-11-24T08:58:00Z</time>
      </trkpt>
      <trkpt lat="44.61172" lon="0.86334">
        <ele>179.42</ele>
        <time>2013-11-24T08:58:06Z</time>
      </trkpt>
      <trkpt lat="44.61122" lon="0.86289">
        <ele>185.67</ele>
        <time>2013-11-24T08:58:22Z</time>
      </trkpt>
      <trkpt lat="44.61099" lon="0.86257">
        <ele>187.11</ele>
        <time>2013-11-24T08:58:30Z</time>
      </trkpt>
      <trkpt lat="44.61071" lon="0.86183">
        <ele>189.04</ele>
        <time>2013-11-24T08:58:45Z</time>
      </trkpt>
      <trkpt lat="44.61041" lon="0.86108">
        <ele>191.44</ele>
        <time>2013-11-24T08:59:01Z</time>
      </trkpt>
      <trkpt lat="44.6101" lon="0.86043">
        <ele>190.48</ele>
        <time>2013-11-24T08:59:14Z</time>
      </trkpt>
      <trkpt lat="44.60969" lon="0.85979">
        <ele>189.04</ele>
        <time>2013-11-24T08:59:26Z</time>
      </trkpt>
      <trkpt lat="44.60877" lon="0.85914">
        <ele>188.56</ele>
        <time>2013-11-24T08:59:46Z</time>
      </trkpt>
      <trkpt lat="44.6079" lon="0.85909">
        <ele>183.75</ele>
        <time>2013-11-24T08:59:59Z</time>
      </trkpt>
      <trkpt lat="44.60779" lon="0.85909">
        <ele>182.79</ele>
        <time>2013-11-24T09:00:01Z</time>
      </trkpt>
      <trkpt lat="44.60773" lon="0.85931">
        <ele>181.83</ele>
        <time>2013-11-24T09:00:06Z</time>
      </trkpt>
      <trkpt lat="44.60772" lon="0.85955">
        <ele>181.83</ele>
        <time>2013-11-24T09:00:10Z</time>
      </trkpt>
      <trkpt lat="44.60763" lon="0.86042">
        <ele>177.98</ele>
        <time>2013-11-24T09:00:21Z</time>
      </trkpt>
      <trkpt lat="44.60755" lon="0.86083">
        <ele>177.98</ele>
        <time>2013-11-24T09:00:26Z</time>
      </trkpt>
      <trkpt lat="44.60739" lon="0.86113">
        <ele>177.98</ele>
        <time>2013-11-24T09:00:31Z</time>
      </trkpt>
      <trkpt lat="44.60713" lon="0.86141">
        <ele>179.9</ele>
        <time>2013-11-24T09:00:38Z</time>
      </trkpt>
      <trkpt lat="44.60694" lon="0.86176">
        <ele>181.35</ele>
        <time>2013-11-24T09:00:46Z</time>
      </trkpt>
      <trkpt lat="44.60688" lon="0.86198">
        <ele>181.83</ele>
        <time>2013-11-24T09:00:50Z</time>
      </trkpt>
      <trkpt lat="44.60663" lon="0.86294">
        <ele>183.75</ele>
        <time>2013-11-24T09:01:09Z</time>
      </trkpt>
      <trkpt lat="44.60652" lon="0.86354">
        <ele>182.79</ele>
        <time>2013-11-24T09:01:19Z</time>
      </trkpt>
      <trkpt lat="44.6065" lon="0.8636">
        <ele>182.79</ele>
        <time>2013-11-24T09:01:20Z</time>
      </trkpt>
      <trkpt lat="44.60648" lon="0.86382">
        <ele>181.83</ele>
        <time>2013-11-24T09:01:23Z</time>
      </trkpt>
      <trkpt lat="44.60633" lon="0.86396">
        <ele>179.42</ele>
        <time>2013-11-24T09:01:29Z</time>
      </trkpt>
      <trkpt lat="44.60629" lon="0.86392">
        <ele>179.42</ele>
        <time>2013-11-24T09:01:30Z</time>
      </trkpt>
      <trkpt lat="44.60612" lon="0.86387">
        <ele>177.98</ele>
        <time>2013-11-24T09:01:34Z</time>
      </trkpt>
      <trkpt lat="44.60578" lon="0.86379">
        <ele>177.02</ele>
        <time>2013-11-24T09:01:41Z</time>
      </trkpt>
      <trkpt lat="44.60563" lon="0.86376">
        <ele>177.5</ele>
        <time>2013-11-24T09:01:44Z</time>
      </trkpt>
      <trkpt lat="44.60537" lon="0.86374">
        <ele>177.02</ele>
        <time>2013-11-24T09:01:49Z</time>
      </trkpt>
      <trkpt lat="44.60526" lon="0.86372">
        <ele>177.5</ele>
        <time>2013-11-24T09:01:51Z</time>
      </trkpt>
      <trkpt lat="44.60505" lon="0.86369">
        <ele>178.46</ele>
        <time>2013-11-24T09:01:56Z</time>
      </trkpt>
      <trkpt lat="44.60487" lon="0.86363">
        <ele>177.98</ele>
        <time>2013-11-24T09:02:00Z</time>
      </trkpt>
      <trkpt lat="44.60446" lon="0.86338">
        <ele>174.62</ele>
        <time>2013-11-24T09:02:08Z</time>
      </trkpt>
      <trkpt lat="44.60424" lon="0.86309">
        <ele>171.73</ele>
        <time>2013-11-24T09:02:13Z</time>
      </trkpt>
      <trkpt lat="44.60388" lon="0.86307">
        <ele>167.89</ele>
        <time>2013-11-24T09:02:23Z</time>
      </trkpt>
      <trkpt lat="44.60356" lon="0.86324">
        <ele>165.48</ele>
        <time>2013-11-24T09:02:32Z</time>
      </trkpt>
      <trkpt lat="44.60322" lon="0.86344">
        <ele>160.2</ele>
        <time>2013-11-24T09:02:43Z</time>
      </trkpt>
      <trkpt lat="44.60296" lon="0.86378">
        <ele>155.39</ele>
        <time>2013-11-24T09:02:53Z</time>
      </trkpt>
      <trkpt lat="44.60284" lon="0.864">
        <ele>152.51</ele>
        <time>2013-11-24T09:02:58Z</time>
      </trkpt>
      <trkpt lat="44.60275" lon="0.86415">
        <ele>150.58</ele>
        <time>2013-11-24T09:03:01Z</time>
      </trkpt>
      <trkpt lat="44.60265" lon="0.86429">
        <ele>149.14</ele>
        <time>2013-11-24T09:03:04Z</time>
      </trkpt>
      <trkpt lat="44.60257" lon="0.86454">
        <ele>148.18</ele>
        <time>2013-11-24T09:03:08Z</time>
      </trkpt>
      <trkpt lat="44.60254" lon="0.86475">
        <ele>147.22</ele>
        <time>2013-11-24T09:03:11Z</time>
      </trkpt>
      <trkpt lat="44.60259" lon="0.86492">
        <ele>147.22</ele>
        <time>2013-11-24T09:03:15Z</time>
      </trkpt>
      <trkpt lat="44.60276" lon="0.865">
        <ele>147.7</ele>
        <time>2013-11-24T09:03:20Z</time>
      </trkpt>
      <trkpt lat="44.60307" lon="0.86531">
        <ele>148.66</ele>
        <time>2013-11-24T09:03:28Z</time>
      </trkpt>
      <trkpt lat="44.60313" lon="0.86543">
        <ele>150.58</ele>
        <time>2013-11-24T09:03:30Z</time>
      </trkpt>
      <trkpt lat="44.60319" lon="0.86554">
        <ele>152.51</ele>
        <time>2013-11-24T09:03:32Z</time>
      </trkpt>
      <trkpt lat="44.60323" lon="0.86593">
        <ele>154.43</ele>
        <time>2013-11-24T09:03:38Z</time>
      </trkpt>
      <trkpt lat="44.60325" lon="0.86649">
        <ele>157.31</ele>
        <time>2013-11-24T09:03:49Z</time>
      </trkpt>
      <trkpt lat="44.60323" lon="0.86678">
        <ele>157.79</ele>
        <time>2013-11-24T09:03:56Z</time>
      </trkpt>
      <trkpt lat="44.60316" lon="0.86705">
        <ele>155.87</ele>
        <time>2013-11-24T09:04:00Z</time>
      </trkpt>
      <trkpt lat="44.60311" lon="0.86722">
        <ele>153.95</ele>
        <time>2013-11-24T09:04:02Z</time>
      </trkpt>
      <trkpt lat="44.60313" lon="0.86761">
        <ele>152.99</ele>
        <time>2013-11-24T09:04:07Z</time>
      </trkpt>
      <trkpt lat="44.60315" lon="0.86814">
        <ele>159.72</ele>
        <time>2013-11-24T09:04:20Z</time>
      </trkpt>
      <trkpt lat="44.60317" lon="0.86852">
        <ele>163.56</ele>
        <time>2013-11-24T09:04:33Z</time>
      </trkpt>
      <trkpt lat="44.60318" lon="0.86904">
        <ele>168.85</ele>
        <time>2013-11-24T09:04:49Z</time>
      </trkpt>
      <trkpt lat="44.60319" lon="0.86943">
        <ele>172.69</ele>
        <time>2013-11-24T09:05:01Z</time>
      </trkpt>
      <trkpt lat="44.60319" lon="0.86945">
        <ele>172.69</ele>
        <time>2013-11-24T09:05:02Z</time>
      </trkpt>
      <trkpt lat="44.60315" lon="0.86959">
        <ele>173.66</ele>
        <time>2013-11-24T09:05:09Z</time>
      </trkpt>
      <trkpt lat="44.60314" lon="0.86961">
        <ele>173.66</ele>
        <time>2013-11-24T09:05:23Z</time>
      </trkpt>
      <trkpt lat="44.60312" lon="0.86965">
        <ele>175.58</ele>
        <time>2013-11-24T09:05:41Z</time>
      </trkpt>
      <trkpt lat="44.60313" lon="0.86964">
        <ele>174.62</ele>
        <time>2013-11-24T09:05:58Z</time>
      </trkpt>
      <trkpt lat="44.60312" lon="0.86963">
        <ele>178.94</ele>
        <time>2013-11-24T09:06:17Z</time>
      </trkpt>
      <trkpt lat="44.60312" lon="0.86966">
        <ele>177.5</ele>
        <time>2013-11-24T09:06:40Z</time>
      </trkpt>
      <trkpt lat="44.60313" lon="0.86965">
        <ele>182.79</ele>
        <time>2013-11-24T09:06:58Z</time>
      </trkpt>
      <trkpt lat="44.6031" lon="0.86968">
        <ele>182.79</ele>
        <time>2013-11-24T09:07:16Z</time>
      </trkpt>
      <trkpt lat="44.60275" lon="0.86986">
        <ele>180.38</ele>
        <time>2013-11-24T09:07:28Z</time>
      </trkpt>
      <trkpt lat="44.6027" lon="0.86989">
        <ele>179.9</ele>
        <time>2013-11-24T09:07:29Z</time>
      </trkpt>
      <trkpt lat="44.60204" lon="0.87016">
        <ele>176.54</ele>
        <time>2013-11-24T09:07:39Z</time>
      </trkpt>
      <trkpt lat="44.60149" lon="0.87058">
        <ele>173.17</ele>
        <time>2013-11-24T09:07:48Z</time>
      </trkpt>
      <trkpt lat="44.60139" lon="0.87064">
        <ele>171.73</ele>
        <time>2013-11-24T09:07:50Z</time>
      </trkpt>
      <trkpt lat="44.60053" lon="0.87089">
        <ele>162.6</ele>
        <time>2013-11-24T09:08:03Z</time>
      </trkpt>
      <trkpt lat="44.60024" lon="0.87098">
        <ele>157.31</ele>
        <time>2013-11-24T09:08:09Z</time>
      </trkpt>
      <trkpt lat="44.6002" lon="0.87117">
        <ele>155.87</ele>
        <time>2013-11-24T09:08:13Z</time>
      </trkpt>
      <trkpt lat="44.60032" lon="0.87222">
        <ele>153.95</ele>
        <time>2013-11-24T09:08:27Z</time>
      </trkpt>
      <trkpt lat="44.60032" lon="0.87287">
        <ele>154.91</ele>
        <time>2013-11-24T09:08:38Z</time>
      </trkpt>
      <trkpt lat="44.60015" lon="0.87297">
        <ele>156.35</ele>
        <time>2013-11-24T09:08:43Z</time>
      </trkpt>
      <trkpt lat="44.59977" lon="0.87274">
        <ele>162.12</ele>
        <time>2013-11-24T09:08:55Z</time>
      </trkpt>
      <trkpt lat="44.59948" lon="0.87224">
        <ele>168.37</ele>
        <time>2013-11-24T09:09:08Z</time>
      </trkpt>
      <trkpt lat="44.59918" lon="0.872">
        <ele>170.29</ele>
        <time>2013-11-24T09:09:20Z</time>
      </trkpt>
      <trkpt lat="44.59883" lon="0.87192">
        <ele>170.29</ele>
        <time>2013-11-24T09:09:31Z</time>
      </trkpt>
      <trkpt lat="44.5985" lon="0.87234">
        <ele>171.25</ele>
        <time>2013-11-24T09:09:44Z</time>
      </trkpt>
      <trkpt lat="44.59816" lon="0.87291">
        <ele>169.33</ele>
        <time>2013-11-24T09:09:58Z</time>
      </trkpt>
      <trkpt lat="44.59776" lon="0.87354">
        <ele>170.77</ele>
        <time>2013-11-24T09:10:15Z</time>
      </trkpt>
      <trkpt lat="44.5974" lon="0.87408">
        <ele>173.17</ele>
        <time>2013-11-24T09:10:29Z</time>
      </trkpt>
      <trkpt lat="44.59717" lon="0.87443">
        <ele>175.1</ele>
        <time>2013-11-24T09:10:40Z</time>
      </trkpt>
      <trkpt lat="44.59684" lon="0.87484">
        <ele>176.54</ele>
        <time>2013-11-24T09:10:53Z</time>
      </trkpt>
      <trkpt lat="44.59658" lon="0.87516">
        <ele>180.38</ele>
        <time>2013-11-24T09:11:03Z</time>
      </trkpt>
      <trkpt lat="44.59629" lon="0.87559">
        <ele>181.83</ele>
        <time>2013-11-24T09:11:16Z</time>
      </trkpt>
      <trkpt lat="44.59603" lon="0.87625">
        <ele>180.87</ele>
        <time>2013-11-24T09:11:32Z</time>
      </trkpt>
      <trkpt lat="44.59585" lon="0.87675">
        <ele>179.42</ele>
        <time>2013-11-24T09:11:44Z</time>
      </trkpt>
      <trkpt lat="44.59581" lon="0.87694">
        <ele>183.75</ele>
        <time>2013-11-24T09:11:49Z</time>
      </trkpt>
      <trkpt lat="44.59576" lon="0.87707">
        <ele>191.92</ele>
        <time>2013-11-24T09:12:01Z</time>
      </trkpt>
      <trkpt lat="44.59575" lon="0.8771">
        <ele>193.84</ele>
        <time>2013-11-24T09:12:17Z</time>
      </trkpt>
      <trkpt lat="44.59577" lon="0.87712">
        <ele>193.36</ele>
        <time>2013-11-24T09:12:33Z</time>
      </trkpt>
      <trkpt lat="44.59576" lon="0.87713">
        <ele>192.4</ele>
        <time>2013-11-24T09:12:54Z</time>
      </trkpt>
      <trkpt lat="44.59576" lon="0.87715">
        <ele>191.92</ele>
        <time>2013-11-24T09:13:04Z</time>
      </trkpt>
      <trkpt lat="44.59569" lon="0.87743">
        <ele>190</ele>
        <time>2013-11-24T09:13:14Z</time>
      </trkpt>
      <trkpt lat="44.59565" lon="0.87757">
        <ele>189.04</ele>
        <time>2013-11-24T09:13:18Z</time>
      </trkpt>
      <trkpt lat="44.59561" lon="0.87773">
        <ele>187.11</ele>
        <time>2013-11-24T09:13:22Z</time>
      </trkpt>
      <trkpt lat="44.59547" lon="0.8783">
        <ele>181.83</ele>
        <time>2013-11-24T09:13:35Z</time>
      </trkpt>
      <trkpt lat="44.59542" lon="0.87852">
        <ele>180.87</ele>
        <time>2013-11-24T09:13:39Z</time>
      </trkpt>
      <trkpt lat="44.59527" lon="0.87854">
        <ele>178.94</ele>
        <time>2013-11-24T09:13:44Z</time>
      </trkpt>
      <trkpt lat="44.59512" lon="0.87844">
        <ele>177.02</ele>
        <time>2013-11-24T09:13:48Z</time>
      </trkpt>
      <trkpt lat="44.595" lon="0.87838">
        <ele>176.06</ele>
        <time>2013-11-24T09:13:51Z</time>
      </trkpt>
      <trkpt lat="44.59446" lon="0.87832">
        <ele>181.35</ele>
        <time>2013-11-24T09:14:05Z</time>
      </trkpt>
      <trkpt lat="44.59404" lon="0.87824">
        <ele>187.11</ele>
        <time>2013-11-24T09:14:17Z</time>
      </trkpt>
      <trkpt lat="44.59384" lon="0.87813">
        <ele>189.04</ele>
        <time>2013-11-24T09:14:24Z</time>
      </trkpt>
      <trkpt lat="44.59352" lon="0.87831">
        <ele>193.36</ele>
        <time>2013-11-24T09:14:38Z</time>
      </trkpt>
      <trkpt lat="44.59319" lon="0.8785">
        <ele>194.8</ele>
        <time>2013-11-24T09:14:49Z</time>
      </trkpt>
      <trkpt lat="44.59309" lon="0.87857">
        <ele>195.28</ele>
        <time>2013-11-24T09:14:52Z</time>
      </trkpt>
      <trkpt lat="44.59254" lon="0.8791">
        <ele>190.48</ele>
        <time>2013-11-24T09:15:03Z</time>
      </trkpt>
      <trkpt lat="44.59249" lon="0.87916">
        <ele>190</ele>
        <time>2013-11-24T09:15:04Z</time>
      </trkpt>
      <trkpt lat="44.59236" lon="0.87945">
        <ele>186.63</ele>
        <time>2013-11-24T09:15:08Z</time>
      </trkpt>
      <trkpt lat="44.59227" lon="0.87959">
        <ele>185.67</ele>
        <time>2013-11-24T09:15:10Z</time>
      </trkpt>
      <trkpt lat="44.59164" lon="0.88044">
        <ele>178.94</ele>
        <time>2013-11-24T09:15:22Z</time>
      </trkpt>
      <trkpt lat="44.59158" lon="0.88053">
        <ele>178.46</ele>
        <time>2013-11-24T09:15:23Z</time>
      </trkpt>
      <trkpt lat="44.59117" lon="0.88129">
        <ele>172.21</ele>
        <time>2013-11-24T09:15:31Z</time>
      </trkpt>
      <trkpt lat="44.59071" lon="0.88155">
        <ele>168.37</ele>
        <time>2013-11-24T09:15:38Z</time>
      </trkpt>
      <trkpt lat="44.59058" lon="0.88142">
        <ele>167.41</ele>
        <time>2013-11-24T09:15:41Z</time>
      </trkpt>
      <trkpt lat="44.59046" lon="0.8813">
        <ele>166.93</ele>
        <time>2013-11-24T09:15:44Z</time>
      </trkpt>
      <trkpt lat="44.59029" lon="0.88128">
        <ele>166.93</ele>
        <time>2013-11-24T09:15:48Z</time>
      </trkpt>
      <trkpt lat="44.59012" lon="0.88147">
        <ele>165.48</ele>
        <time>2013-11-24T09:15:52Z</time>
      </trkpt>
      <trkpt lat="44.58996" lon="0.8816">
        <ele>164.04</ele>
        <time>2013-11-24T09:15:55Z</time>
      </trkpt>
      <trkpt lat="44.58982" lon="0.88177">
        <ele>162.12</ele>
        <time>2013-11-24T09:16:05Z</time>
      </trkpt>
      <trkpt lat="44.58983" lon="0.88176">
        <ele>162.6</ele>
        <time>2013-11-24T09:16:18Z</time>
      </trkpt>
      <trkpt lat="44.58982" lon="0.88175">
        <ele>163.56</ele>
        <time>2013-11-24T09:16:34Z</time>
      </trkpt>
      <trkpt lat="44.58982" lon="0.88176">
        <ele>164.52</ele>
        <time>2013-11-24T09:16:49Z</time>
      </trkpt>
      <trkpt lat="44.58981" lon="0.88175">
        <ele>165</ele>
        <time>2013-11-24T09:17:12Z</time>
      </trkpt>
      <trkpt lat="44.5898" lon="0.88176">
        <ele>165</ele>
        <time>2013-11-24T09:17:40Z</time>
      </trkpt>
      <trkpt lat="44.58981" lon="0.88176">
        <ele>165.48</ele>
        <time>2013-11-24T09:17:57Z</time>
      </trkpt>
      <trkpt lat="44.58981" lon="0.88175">
        <ele>165.48</ele>
        <time>2013-11-24T09:18:08Z</time>
      </trkpt>
      <trkpt lat="44.58976" lon="0.88165">
        <ele>165</ele>
        <time>2013-11-24T09:18:12Z</time>
      </trkpt>
      <trkpt lat="44.58961" lon="0.88149">
        <ele>163.08</ele>
        <time>2013-11-24T09:18:16Z</time>
      </trkpt>
      <trkpt lat="44.58944" lon="0.88124">
        <ele>160.68</ele>
        <time>2013-11-24T09:18:20Z</time>
      </trkpt>
      <trkpt lat="44.58912" lon="0.8808">
        <ele>155.39</ele>
        <time>2013-11-24T09:18:27Z</time>
      </trkpt>
      <trkpt lat="44.58883" lon="0.88053">
        <ele>151.06</ele>
        <time>2013-11-24T09:18:34Z</time>
      </trkpt>
      <trkpt lat="44.5888" lon="0.88046">
        <ele>151.06</ele>
        <time>2013-11-24T09:18:35Z</time>
      </trkpt>
      <trkpt lat="44.58844" lon="0.87975">
        <ele>151.54</ele>
        <time>2013-11-24T09:18:46Z</time>
      </trkpt>
      <trkpt lat="44.58818" lon="0.87944">
        <ele>152.99</ele>
        <time>2013-11-24T09:18:53Z</time>
      </trkpt>
      <trkpt lat="44.58791" lon="0.87928">
        <ele>154.91</ele>
        <time>2013-11-24T09:18:59Z</time>
      </trkpt>
      <trkpt lat="44.5877" lon="0.87924">
        <ele>155.39</ele>
        <time>2013-11-24T09:19:03Z</time>
      </trkpt>
      <trkpt lat="44.58755" lon="0.8792">
        <ele>155.39</ele>
        <time>2013-11-24T09:19:06Z</time>
      </trkpt>
      <trkpt lat="44.58682" lon="0.87901">
        <ele>154.43</ele>
        <time>2013-11-24T09:19:20Z</time>
      </trkpt>
      <trkpt lat="44.58663" lon="0.87904">
        <ele>153.95</ele>
        <time>2013-11-24T09:19:24Z</time>
      </trkpt>
      <trkpt lat="44.58644" lon="0.87908">
        <ele>153.95</ele>
        <time>2013-11-24T09:19:28Z</time>
      </trkpt>
      <trkpt lat="44.58625" lon="0.87907">
        <ele>154.43</ele>
        <time>2013-11-24T09:19:32Z</time>
      </trkpt>
      <trkpt lat="44.58617" lon="0.87905">
        <ele>154.43</ele>
        <time>2013-11-24T09:19:34Z</time>
      </trkpt>
      <trkpt lat="44.58564" lon="0.87865">
        <ele>152.99</ele>
        <time>2013-11-24T09:19:49Z</time>
      </trkpt>
      <trkpt lat="44.58551" lon="0.87865">
        <ele>153.95</ele>
        <time>2013-11-24T09:19:54Z</time>
      </trkpt>
      <trkpt lat="44.5852" lon="0.87871">
        <ele>156.83</ele>
        <time>2013-11-24T09:20:08Z</time>
      </trkpt>
      <trkpt lat="44.58495" lon="0.87883">
        <ele>156.83</ele>
        <time>2013-11-24T09:20:19Z</time>
      </trkpt>
      <trkpt lat="44.58467" lon="0.87897">
        <ele>160.68</ele>
        <time>2013-11-24T09:20:30Z</time>
      </trkpt>
      <trkpt lat="44.5843" lon="0.87891">
        <ele>165</ele>
        <time>2013-11-24T09:20:44Z</time>
      </trkpt>
      <trkpt lat="44.58425" lon="0.87887">
        <ele>165.48</ele>
        <time>2013-11-24T09:20:47Z</time>
      </trkpt>
      <trkpt lat="44.58411" lon="0.87873">
        <ele>167.41</ele>
        <time>2013-11-24T09:20:59Z</time>
      </trkpt>
      <trkpt lat="44.5839" lon="0.87841">
        <ele>170.29</ele>
        <time>2013-11-24T09:21:11Z</time>
      </trkpt>
      <trkpt lat="44.58375" lon="0.878">
        <ele>169.81</ele>
        <time>2013-11-24T09:21:22Z</time>
      </trkpt>
      <trkpt lat="44.58357" lon="0.87741">
        <ele>170.29</ele>
        <time>2013-11-24T09:21:33Z</time>
      </trkpt>
      <trkpt lat="44.58347" lon="0.87684">
        <ele>162.6</ele>
        <time>2013-11-24T09:21:43Z</time>
      </trkpt>
      <trkpt lat="44.58337" lon="0.87664">
        <ele>158.75</ele>
        <time>2013-11-24T09:21:47Z</time>
      </trkpt>
      <trkpt lat="44.5833" lon="0.87656">
        <ele>156.83</ele>
        <time>2013-11-24T09:21:49Z</time>
      </trkpt>
      <trkpt lat="44.58307" lon="0.87642">
        <ele>152.99</ele>
        <time>2013-11-24T09:21:54Z</time>
      </trkpt>
      <trkpt lat="44.58273" lon="0.87623">
        <ele>154.91</ele>
        <time>2013-11-24T09:22:04Z</time>
      </trkpt>
      <trkpt lat="44.58251" lon="0.87579">
        <ele>160.2</ele>
        <time>2013-11-24T09:22:18Z</time>
      </trkpt>
      <trkpt lat="44.58243" lon="0.87575">
        <ele>162.12</ele>
        <time>2013-11-24T09:22:22Z</time>
      </trkpt>
      <trkpt lat="44.58226" lon="0.87581">
        <ele>164.04</ele>
        <time>2013-11-24T09:22:29Z</time>
      </trkpt>
      <trkpt lat="44.58225" lon="0.876">
        <ele>165.48</ele>
        <time>2013-11-24T09:22:37Z</time>
      </trkpt>
      <trkpt lat="44.58221" lon="0.87611">
        <ele>165.96</ele>
        <time>2013-11-24T09:22:42Z</time>
      </trkpt>
      <trkpt lat="44.58215" lon="0.87616">
        <ele>165.96</ele>
        <time>2013-11-24T09:22:45Z</time>
      </trkpt>
      <trkpt lat="44.58208" lon="0.87621">
        <ele>165.96</ele>
        <time>2013-11-24T09:22:49Z</time>
      </trkpt>
      <trkpt lat="44.58202" lon="0.87623">
        <ele>165.96</ele>
        <time>2013-11-24T09:22:52Z</time>
      </trkpt>
      <trkpt lat="44.58199" lon="0.87627">
        <ele>166.45</ele>
        <time>2013-11-24T09:22:54Z</time>
      </trkpt>
      <trkpt lat="44.58192" lon="0.8763">
        <ele>166.93</ele>
        <time>2013-11-24T09:22:57Z</time>
      </trkpt>
      <trkpt lat="44.58183" lon="0.87635">
        <ele>167.89</ele>
        <time>2013-11-24T09:23:02Z</time>
      </trkpt>
      <trkpt lat="44.58174" lon="0.87639">
        <ele>168.37</ele>
        <time>2013-11-24T09:23:16Z</time>
      </trkpt>
      <trkpt lat="44.5817" lon="0.87641">
        <ele>169.33</ele>
        <time>2013-11-24T09:23:32Z</time>
      </trkpt>
      <trkpt lat="44.58166" lon="0.8764">
        <ele>170.77</ele>
        <time>2013-11-24T09:23:59Z</time>
      </trkpt>
      <trkpt lat="44.58165" lon="0.8764">
        <ele>171.73</ele>
        <time>2013-11-24T09:24:07Z</time>
      </trkpt>
      <trkpt lat="44.58162" lon="0.8764">
        <ele>172.21</ele>
        <time>2013-11-24T09:24:10Z</time>
      </trkpt>
      <trkpt lat="44.58153" lon="0.87637">
        <ele>174.62</ele>
        <time>2013-11-24T09:24:18Z</time>
      </trkpt>
      <trkpt lat="44.58145" lon="0.8764">
        <ele>175.1</ele>
        <time>2013-11-24T09:24:24Z</time>
      </trkpt>
      <trkpt lat="44.5814" lon="0.87641">
        <ele>174.62</ele>
        <time>2013-11-24T09:24:27Z</time>
      </trkpt>
      <trkpt lat="44.58125" lon="0.87633">
        <ele>173.17</ele>
        <time>2013-11-24T09:24:36Z</time>
      </trkpt>
      <trkpt lat="44.58123" lon="0.87629">
        <ele>172.69</ele>
        <time>2013-11-24T09:24:38Z</time>
      </trkpt>
      <trkpt lat="44.58121" lon="0.87627">
        <ele>172.21</ele>
        <time>2013-11-24T09:24:40Z</time>
      </trkpt>
      <trkpt lat="44.58112" lon="0.87627">
        <ele>172.69</ele>
        <time>2013-11-24T09:24:45Z</time>
      </trkpt>
      <trkpt lat="44.58094" lon="0.87631">
        <ele>173.66</ele>
        <time>2013-11-24T09:24:54Z</time>
      </trkpt>
      <trkpt lat="44.58086" lon="0.87629">
        <ele>173.66</ele>
        <time>2013-11-24T09:24:59Z</time>
      </trkpt>
      <trkpt lat="44.58079" lon="0.87623">
        <ele>172.69</ele>
        <time>2013-11-24T09:25:13Z</time>
      </trkpt>
      <trkpt lat="44.58079" lon="0.87623">
        <ele>173.66</ele>
        <time>2013-11-24T09:25:30Z</time>
      </trkpt>
      <trkpt lat="44.58077" lon="0.87624">
        <ele>175.1</ele>
        <time>2013-11-24T09:25:47Z</time>
      </trkpt>
      <trkpt lat="44.58077" lon="0.87622">
        <ele>175.1</ele>
        <time>2013-11-24T09:26:04Z</time>
      </trkpt>
      <trkpt lat="44.58075" lon="0.8762">
        <ele>176.54</ele>
        <time>2013-11-24T09:26:19Z</time>
      </trkpt>
      <trkpt lat="44.58066" lon="0.87597">
        <ele>173.66</ele>
        <time>2013-11-24T09:26:27Z</time>
      </trkpt>
      <trkpt lat="44.58064" lon="0.87592">
        <ele>172.21</ele>
        <time>2013-11-24T09:26:29Z</time>
      </trkpt>
      <trkpt lat="44.58055" lon="0.87582">
        <ele>168.37</ele>
        <time>2013-11-24T09:26:36Z</time>
      </trkpt>
      <trkpt lat="44.5805" lon="0.87569">
        <ele>166.45</ele>
        <time>2013-11-24T09:26:40Z</time>
      </trkpt>
      <trkpt lat="44.58037" lon="0.87558">
        <ele>163.08</ele>
        <time>2013-11-24T09:26:46Z</time>
      </trkpt>
      <trkpt lat="44.58013" lon="0.87551">
        <ele>157.31</ele>
        <time>2013-11-24T09:26:55Z</time>
      </trkpt>
      <trkpt lat="44.5801" lon="0.87547">
        <ele>153.95</ele>
        <time>2013-11-24T09:27:05Z</time>
      </trkpt>
      <trkpt lat="44.58004" lon="0.87544">
        <ele>153.47</ele>
        <time>2013-11-24T09:27:18Z</time>
      </trkpt>
      <trkpt lat="44.58003" lon="0.87545">
        <ele>155.39</ele>
        <time>2013-11-24T09:27:42Z</time>
      </trkpt>
      <trkpt lat="44.58002" lon="0.87544">
        <ele>152.51</ele>
        <time>2013-11-24T09:28:05Z</time>
      </trkpt>
      <trkpt lat="44.57999" lon="0.87548">
        <ele>152.03</ele>
        <time>2013-11-24T09:28:19Z</time>
      </trkpt>
      <trkpt lat="44.57994" lon="0.87558">
        <ele>147.22</ele>
        <time>2013-11-24T09:28:31Z</time>
      </trkpt>
      <trkpt lat="44.57991" lon="0.87565">
        <ele>144.34</ele>
        <time>2013-11-24T09:28:38Z</time>
      </trkpt>
      <trkpt lat="44.5799" lon="0.87574">
        <ele>139.05</ele>
        <time>2013-11-24T09:28:52Z</time>
      </trkpt>
      <trkpt lat="44.57986" lon="0.87582">
        <ele>136.64</ele>
        <time>2013-11-24T09:29:06Z</time>
      </trkpt>
      <trkpt lat="44.57985" lon="0.87588">
        <ele>136.64</ele>
        <time>2013-11-24T09:29:15Z</time>
      </trkpt>
      <trkpt lat="44.57984" lon="0.87589">
        <ele>135.2</ele>
        <time>2013-11-24T09:29:36Z</time>
      </trkpt>
      <trkpt lat="44.57985" lon="0.87588">
        <ele>134.72</ele>
        <time>2013-11-24T09:29:56Z</time>
      </trkpt>
      <trkpt lat="44.57985" lon="0.87587">
        <ele>136.64</ele>
        <time>2013-11-24T09:30:09Z</time>
      </trkpt>
      <trkpt lat="44.57985" lon="0.87588">
        <ele>137.61</ele>
        <time>2013-11-24T09:30:26Z</time>
      </trkpt>
      <trkpt lat="44.57985" lon="0.87585">
        <ele>136.64</ele>
        <time>2013-11-24T09:30:48Z</time>
      </trkpt>
      <trkpt lat="44.57983" lon="0.87588">
        <ele>139.05</ele>
        <time>2013-11-24T09:31:04Z</time>
      </trkpt>
      <trkpt lat="44.57983" lon="0.87592">
        <ele>137.61</ele>
        <time>2013-11-24T09:31:23Z</time>
      </trkpt>
      <trkpt lat="44.57983" lon="0.8759">
        <ele>138.09</ele>
        <time>2013-11-24T09:31:45Z</time>
      </trkpt>
      <trkpt lat="44.5798" lon="0.87584">
        <ele>138.57</ele>
        <time>2013-11-24T09:32:08Z</time>
      </trkpt>
      <trkpt lat="44.5798" lon="0.87584">
        <ele>138.57</ele>
        <time>2013-11-24T09:32:23Z</time>
      </trkpt>
      <trkpt lat="44.57981" lon="0.87582">
        <ele>139.05</ele>
        <time>2013-11-24T09:32:35Z</time>
      </trkpt>
      <trkpt lat="44.57976" lon="0.87574">
        <ele>138.57</ele>
        <time>2013-11-24T09:32:40Z</time>
      </trkpt>
      <trkpt lat="44.57971" lon="0.87565">
        <ele>137.13</ele>
        <time>2013-11-24T09:32:45Z</time>
      </trkpt>
      <trkpt lat="44.57965" lon="0.87578">
        <ele>131.84</ele>
        <time>2013-11-24T09:32:54Z</time>
      </trkpt>
      <trkpt lat="44.57965" lon="0.87582">
        <ele>131.36</ele>
        <time>2013-11-24T09:32:55Z</time>
      </trkpt>
      <trkpt lat="44.5796" lon="0.87602">
        <ele>129.92</ele>
        <time>2013-11-24T09:33:00Z</time>
      </trkpt>
      <trkpt lat="44.57948" lon="0.87616">
        <ele>130.4</ele>
        <time>2013-11-24T09:33:07Z</time>
      </trkpt>
      <trkpt lat="44.57929" lon="0.87645">
        <ele>134.24</ele>
        <time>2013-11-24T09:33:24Z</time>
      </trkpt>
      <trkpt lat="44.57928" lon="0.87649">
        <ele>134.24</ele>
        <time>2013-11-24T09:33:26Z</time>
      </trkpt>
      <trkpt lat="44.57925" lon="0.87659">
        <ele>135.2</ele>
        <time>2013-11-24T09:33:30Z</time>
      </trkpt>
      <trkpt lat="44.57912" lon="0.87707">
        <ele>135.68</ele>
        <time>2013-11-24T09:33:44Z</time>
      </trkpt>
      <trkpt lat="44.57886" lon="0.87759">
        <ele>136.16</ele>
        <time>2013-11-24T09:34:00Z</time>
      </trkpt>
      <trkpt lat="44.57853" lon="0.87788">
        <ele>135.68</ele>
        <time>2013-11-24T09:34:14Z</time>
      </trkpt>
      <trkpt lat="44.57801" lon="0.87819">
        <ele>137.13</ele>
        <time>2013-11-24T09:34:30Z</time>
      </trkpt>
      <trkpt lat="44.57747" lon="0.87842">
        <ele>138.57</ele>
        <time>2013-11-24T09:34:45Z</time>
      </trkpt>
      <trkpt lat="44.5768" lon="0.8784">
        <ele>139.05</ele>
        <time>2013-11-24T09:35:02Z</time>
      </trkpt>
      <trkpt lat="44.57639" lon="0.87826">
        <ele>139.05</ele>
        <time>2013-11-24T09:35:12Z</time>
      </trkpt>
      <trkpt lat="44.57596" lon="0.87847">
        <ele>138.57</ele>
        <time>2013-11-24T09:35:24Z</time>
      </trkpt>
      <trkpt lat="44.57592" lon="0.87888">
        <ele>136.64</ele>
        <time>2013-11-24T09:35:33Z</time>
      </trkpt>
      <trkpt lat="44.57601" lon="0.87918">
        <ele>137.61</ele>
        <time>2013-11-24T09:35:44Z</time>
      </trkpt>
      <trkpt lat="44.57612" lon="0.8795">
        <ele>142.41</ele>
        <time>2013-11-24T09:35:56Z</time>
      </trkpt>
      <trkpt lat="44.5762" lon="0.87981">
        <ele>146.26</ele>
        <time>2013-11-24T09:36:09Z</time>
      </trkpt>
      <trkpt lat="44.57624" lon="0.88015">
        <ele>145.3</ele>
        <time>2013-11-24T09:36:23Z</time>
      </trkpt>
      <trkpt lat="44.57617" lon="0.88057">
        <ele>147.22</ele>
        <time>2013-11-24T09:36:38Z</time>
      </trkpt>
      <trkpt lat="44.57612" lon="0.88093">
        <ele>146.26</ele>
        <time>2013-11-24T09:36:51Z</time>
      </trkpt>
      <trkpt lat="44.57605" lon="0.88126">
        <ele>151.54</ele>
        <time>2013-11-24T09:37:02Z</time>
      </trkpt>
      <trkpt lat="44.576" lon="0.88145">
        <ele>152.51</ele>
        <time>2013-11-24T09:37:09Z</time>
      </trkpt>
      <trkpt lat="44.57611" lon="0.88179">
        <ele>152.99</ele>
        <time>2013-11-24T09:37:21Z</time>
      </trkpt>
      <trkpt lat="44.57607" lon="0.88212">
        <ele>150.58</ele>
        <time>2013-11-24T09:37:32Z</time>
      </trkpt>
      <trkpt lat="44.57604" lon="0.88224">
        <ele>152.51</ele>
        <time>2013-11-24T09:37:38Z</time>
      </trkpt>
      <trkpt lat="44.57604" lon="0.88237">
        <ele>154.91</ele>
        <time>2013-11-24T09:37:44Z</time>
      </trkpt>
      <trkpt lat="44.57603" lon="0.88247">
        <ele>160.68</ele>
        <time>2013-11-24T09:37:56Z</time>
      </trkpt>
      <trkpt lat="44.57602" lon="0.88253">
        <ele>161.64</ele>
        <time>2013-11-24T09:38:08Z</time>
      </trkpt>
      <trkpt lat="44.576" lon="0.88264">
        <ele>166.93</ele>
        <time>2013-11-24T09:38:19Z</time>
      </trkpt>
      <trkpt lat="44.57595" lon="0.88278">
        <ele>173.17</ele>
        <time>2013-11-24T09:38:36Z</time>
      </trkpt>
      <trkpt lat="44.57595" lon="0.88279">
        <ele>173.17</ele>
        <time>2013-11-24T09:38:37Z</time>
      </trkpt>
      <trkpt lat="44.57582" lon="0.88285">
        <ele>174.14</ele>
        <time>2013-11-24T09:38:51Z</time>
      </trkpt>
      <trkpt lat="44.57564" lon="0.88293">
        <ele>175.58</ele>
        <time>2013-11-24T09:39:03Z</time>
      </trkpt>
      <trkpt lat="44.5754" lon="0.88295">
        <ele>176.06</ele>
        <time>2013-11-24T09:39:13Z</time>
      </trkpt>
      <trkpt lat="44.57512" lon="0.88292">
        <ele>177.02</ele>
        <time>2013-11-24T09:39:25Z</time>
      </trkpt>
      <trkpt lat="44.5749" lon="0.88286">
        <ele>176.54</ele>
        <time>2013-11-24T09:39:36Z</time>
      </trkpt>
      <trkpt lat="44.57468" lon="0.88281">
        <ele>177.98</ele>
        <time>2013-11-24T09:39:47Z</time>
      </trkpt>
      <trkpt lat="44.57457" lon="0.88281">
        <ele>180.38</ele>
        <time>2013-11-24T09:39:55Z</time>
      </trkpt>
      <trkpt lat="44.57441" lon="0.88281">
        <ele>185.67</ele>
        <time>2013-11-24T09:40:07Z</time>
      </trkpt>
      <trkpt lat="44.57439" lon="0.88281">
        <ele>185.67</ele>
        <time>2013-11-24T09:40:08Z</time>
      </trkpt>
      <trkpt lat="44.57428" lon="0.88279">
        <ele>186.15</ele>
        <time>2013-11-24T09:40:23Z</time>
      </trkpt>
      <trkpt lat="44.57427" lon="0.88276">
        <ele>188.08</ele>
        <time>2013-11-24T09:40:44Z</time>
      </trkpt>
      <trkpt lat="44.57425" lon="0.88275">
        <ele>188.56</ele>
        <time>2013-11-24T09:41:09Z</time>
      </trkpt>
      <trkpt lat="44.57423" lon="0.88274">
        <ele>189.04</ele>
        <time>2013-11-24T09:41:31Z</time>
      </trkpt>
      <trkpt lat="44.57408" lon="0.88265">
        <ele>186.63</ele>
        <time>2013-11-24T09:41:41Z</time>
      </trkpt>
      <trkpt lat="44.57398" lon="0.88262">
        <ele>183.75</ele>
        <time>2013-11-24T09:41:48Z</time>
      </trkpt>
      <trkpt lat="44.57389" lon="0.88257">
        <ele>179.9</ele>
        <time>2013-11-24T09:41:53Z</time>
      </trkpt>
      <trkpt lat="44.57378" lon="0.88247">
        <ele>174.14</ele>
        <time>2013-11-24T09:41:59Z</time>
      </trkpt>
      <trkpt lat="44.57347" lon="0.88234">
        <ele>168.85</ele>
        <time>2013-11-24T09:42:11Z</time>
      </trkpt>
      <trkpt lat="44.5733" lon="0.88228">
        <ele>173.17</ele>
        <time>2013-11-24T09:42:21Z</time>
      </trkpt>
      <trkpt lat="44.57322" lon="0.88222">
        <ele>174.14</ele>
        <time>2013-11-24T09:42:26Z</time>
      </trkpt>
      <trkpt lat="44.57301" lon="0.88212">
        <ele>175.58</ele>
        <time>2013-11-24T09:42:39Z</time>
      </trkpt>
      <trkpt lat="44.57287" lon="0.88193">
        <ele>175.1</ele>
        <time>2013-11-24T09:42:47Z</time>
      </trkpt>
      <trkpt lat="44.57281" lon="0.88181">
        <ele>172.21</ele>
        <time>2013-11-24T09:42:58Z</time>
      </trkpt>
      <trkpt lat="44.57281" lon="0.88179">
        <ele>173.66</ele>
        <time>2013-11-24T09:43:16Z</time>
      </trkpt>
      <trkpt lat="44.57281" lon="0.88179">
        <ele>174.14</ele>
        <time>2013-11-24T09:43:17Z</time>
      </trkpt>
      <trkpt lat="44.57266" lon="0.88156">
        <ele>173.66</ele>
        <time>2013-11-24T09:43:24Z</time>
      </trkpt>
      <trkpt lat="44.5725" lon="0.88138">
        <ele>171.73</ele>
        <time>2013-11-24T09:43:28Z</time>
      </trkpt>
      <trkpt lat="44.57231" lon="0.88129">
        <ele>169.33</ele>
        <time>2013-11-24T09:43:32Z</time>
      </trkpt>
      <trkpt lat="44.57211" lon="0.88127">
        <ele>168.37</ele>
        <time>2013-11-24T09:43:36Z</time>
      </trkpt>
      <trkpt lat="44.57183" lon="0.88108">
        <ele>163.56</ele>
        <time>2013-11-24T09:43:43Z</time>
      </trkpt>
      <trkpt lat="44.57172" lon="0.88096">
        <ele>160.2</ele>
        <time>2013-11-24T09:43:47Z</time>
      </trkpt>
      <trkpt lat="44.57157" lon="0.88082">
        <ele>157.31</ele>
        <time>2013-11-24T09:43:51Z</time>
      </trkpt>
      <trkpt lat="44.57142" lon="0.88079">
        <ele>152.99</ele>
        <time>2013-11-24T09:44:01Z</time>
      </trkpt>
      <trkpt lat="44.5714" lon="0.88079">
        <ele>152.03</ele>
        <time>2013-11-24T09:44:20Z</time>
      </trkpt>
      <trkpt lat="44.5714" lon="0.88077">
        <ele>151.06</ele>
        <time>2013-11-24T09:44:44Z</time>
      </trkpt>
      <trkpt lat="44.57141" lon="0.88079">
        <ele>148.66</ele>
        <time>2013-11-24T09:45:14Z</time>
      </trkpt>
      <trkpt lat="44.5714" lon="0.8808">
        <ele>149.62</ele>
        <time>2013-11-24T09:45:36Z</time>
      </trkpt>
      <trkpt lat="44.57139" lon="0.88078">
        <ele>148.18</ele>
        <time>2013-11-24T09:45:56Z</time>
      </trkpt>
      <trkpt lat="44.57139" lon="0.88079">
        <ele>149.62</ele>
        <time>2013-11-24T09:46:16Z</time>
      </trkpt>
      <trkpt lat="44.57139" lon="0.88081">
        <ele>149.62</ele>
        <time>2013-11-24T09:46:18Z</time>
      </trkpt>
      <trkpt lat="44.57136" lon="0.88113">
        <ele>149.14</ele>
        <time>2013-11-24T09:46:32Z</time>
      </trkpt>
      <trkpt lat="44.57137" lon="0.88115">
        <ele>149.14</ele>
        <time>2013-11-24T09:46:33Z</time>
      </trkpt>
      <trkpt lat="44.5714" lon="0.88145">
        <ele>151.06</ele>
        <time>2013-11-24T09:46:45Z</time>
      </trkpt>
      <trkpt lat="44.57141" lon="0.88181">
        <ele>155.87</ele>
        <time>2013-11-24T09:47:00Z</time>
      </trkpt>
      <trkpt lat="44.57143" lon="0.88191">
        <ele>157.31</ele>
        <time>2013-11-24T09:47:05Z</time>
      </trkpt>
      <trkpt lat="44.57147" lon="0.88221">
        <ele>159.72</ele>
        <time>2013-11-24T09:47:19Z</time>
      </trkpt>
      <trkpt lat="44.57155" lon="0.88258">
        <ele>165</ele>
        <time>2013-11-24T09:47:34Z</time>
      </trkpt>
      <trkpt lat="44.57167" lon="0.88276">
        <ele>167.89</ele>
        <time>2013-11-24T09:47:44Z</time>
      </trkpt>
      <trkpt lat="44.57178" lon="0.88294">
        <ele>169.81</ele>
        <time>2013-11-24T09:47:53Z</time>
      </trkpt>
      <trkpt lat="44.57189" lon="0.88323">
        <ele>173.17</ele>
        <time>2013-11-24T09:48:07Z</time>
      </trkpt>
      <trkpt lat="44.57198" lon="0.8835">
        <ele>172.69</ele>
        <time>2013-11-24T09:48:18Z</time>
      </trkpt>
      <trkpt lat="44.57214" lon="0.88382">
        <ele>173.66</ele>
        <time>2013-11-24T09:48:31Z</time>
      </trkpt>
      <trkpt lat="44.57227" lon="0.88422">
        <ele>175.58</ele>
        <time>2013-11-24T09:48:44Z</time>
      </trkpt>
      <trkpt lat="44.57235" lon="0.88469">
        <ele>172.69</ele>
        <time>2013-11-24T09:48:58Z</time>
      </trkpt>
      <trkpt lat="44.57235" lon="0.88472">
        <ele>172.69</ele>
        <time>2013-11-24T09:48:59Z</time>
      </trkpt>
      <trkpt lat="44.57232" lon="0.88505">
        <ele>177.5</ele>
        <time>2013-11-24T09:49:14Z</time>
      </trkpt>
      <trkpt lat="44.57231" lon="0.88522">
        <ele>182.31</ele>
        <time>2013-11-24T09:49:26Z</time>
      </trkpt>
      <trkpt lat="44.57231" lon="0.88523">
        <ele>182.79</ele>
        <time>2013-11-24T09:49:27Z</time>
      </trkpt>
      <trkpt lat="44.57224" lon="0.88537">
        <ele>183.75</ele>
        <time>2013-11-24T09:49:34Z</time>
      </trkpt>
      <trkpt lat="44.5722" lon="0.88545">
        <ele>182.31</ele>
        <time>2013-11-24T09:49:46Z</time>
      </trkpt>
      <trkpt lat="44.57221" lon="0.88548">
        <ele>184.23</ele>
        <time>2013-11-24T09:50:10Z</time>
      </trkpt>
      <trkpt lat="44.5722" lon="0.88545">
        <ele>190</ele>
        <time>2013-11-24T09:50:30Z</time>
      </trkpt>
      <trkpt lat="44.57224" lon="0.88545">
        <ele>189.52</ele>
        <time>2013-11-24T09:50:50Z</time>
      </trkpt>
      <trkpt lat="44.57223" lon="0.88548">
        <ele>189.04</ele>
        <time>2013-11-24T09:51:05Z</time>
      </trkpt>
      <trkpt lat="44.5722" lon="0.88548">
        <ele>187.59</ele>
        <time>2013-11-24T09:51:26Z</time>
      </trkpt>
      <trkpt lat="44.57218" lon="0.8855">
        <ele>186.63</ele>
        <time>2013-11-24T09:51:47Z</time>
      </trkpt>
      <trkpt lat="44.57216" lon="0.88555">
        <ele>186.63</ele>
        <time>2013-11-24T09:52:03Z</time>
      </trkpt>
      <trkpt lat="44.57214" lon="0.88557">
        <ele>186.63</ele>
        <time>2013-11-24T09:52:08Z</time>
      </trkpt>
      <trkpt lat="44.57213" lon="0.88561">
        <ele>187.11</ele>
        <time>2013-11-24T09:52:13Z</time>
      </trkpt>
      <trkpt lat="44.57203" lon="0.88592">
        <ele>186.63</ele>
        <time>2013-11-24T09:52:25Z</time>
      </trkpt>
      <trkpt lat="44.57214" lon="0.88638">
        <ele>183.27</ele>
        <time>2013-11-24T09:52:36Z</time>
      </trkpt>
      <trkpt lat="44.57216" lon="0.88658">
        <ele>183.75</ele>
        <time>2013-11-24T09:52:41Z</time>
      </trkpt>
      <trkpt lat="44.57222" lon="0.8868">
        <ele>185.19</ele>
        <time>2013-11-24T09:52:47Z</time>
      </trkpt>
      <trkpt lat="44.57226" lon="0.88683">
        <ele>185.67</ele>
        <time>2013-11-24T09:52:49Z</time>
      </trkpt>
      <trkpt lat="44.57236" lon="0.88685">
        <ele>189.04</ele>
        <time>2013-11-24T09:53:00Z</time>
      </trkpt>
      <trkpt lat="44.57234" lon="0.88685">
        <ele>190</ele>
        <time>2013-11-24T09:53:31Z</time>
      </trkpt>
      <trkpt lat="44.57236" lon="0.88688">
        <ele>186.63</ele>
        <time>2013-11-24T09:53:42Z</time>
      </trkpt>
      <trkpt lat="44.57243" lon="0.88695">
        <ele>187.59</ele>
        <time>2013-11-24T09:53:51Z</time>
      </trkpt>
      <trkpt lat="44.57266" lon="0.88696">
        <ele>186.63</ele>
        <time>2013-11-24T09:53:57Z</time>
      </trkpt>
      <trkpt lat="44.57288" lon="0.88719">
        <ele>186.15</ele>
        <time>2013-11-24T09:54:02Z</time>
      </trkpt>
      <trkpt lat="44.57316" lon="0.88722">
        <ele>184.71</ele>
        <time>2013-11-24T09:54:08Z</time>
      </trkpt>
      <trkpt lat="44.57344" lon="0.8872">
        <ele>181.83</ele>
        <time>2013-11-24T09:54:13Z</time>
      </trkpt>
      <trkpt lat="44.57357" lon="0.88726">
        <ele>180.38</ele>
        <time>2013-11-24T09:54:15Z</time>
      </trkpt>
      <trkpt lat="44.57399" lon="0.88736">
        <ele>176.06</ele>
        <time>2013-11-24T09:54:21Z</time>
      </trkpt>
      <trkpt lat="44.57424" lon="0.88769">
        <ele>170.29</ele>
        <time>2013-11-24T09:54:27Z</time>
      </trkpt>
      <trkpt lat="44.5743" lon="0.88784">
        <ele>167.89</ele>
        <time>2013-11-24T09:54:29Z</time>
      </trkpt>
      <trkpt lat="44.57436" lon="0.88804">
        <ele>165.96</ele>
        <time>2013-11-24T09:54:32Z</time>
      </trkpt>
      <trkpt lat="44.57455" lon="0.8887">
        <ele>163.08</ele>
        <time>2013-11-24T09:54:46Z</time>
      </trkpt>
      <trkpt lat="44.57489" lon="0.88876">
        <ele>165</ele>
        <time>2013-11-24T09:54:57Z</time>
      </trkpt>
      <trkpt lat="44.57497" lon="0.88884">
        <ele>165.96</ele>
        <time>2013-11-24T09:55:00Z</time>
      </trkpt>
      <trkpt lat="44.57503" lon="0.88897">
        <ele>168.85</ele>
        <time>2013-11-24T09:55:05Z</time>
      </trkpt>
      <trkpt lat="44.57533" lon="0.88928">
        <ele>176.54</ele>
        <time>2013-11-24T09:55:21Z</time>
      </trkpt>
      <trkpt lat="44.57572" lon="0.88929">
        <ele>180.87</ele>
        <time>2013-11-24T09:55:34Z</time>
      </trkpt>
      <trkpt lat="44.57606" lon="0.88938">
        <ele>182.79</ele>
        <time>2013-11-24T09:55:45Z</time>
      </trkpt>
      <trkpt lat="44.57641" lon="0.88957">
        <ele>180.87</ele>
        <time>2013-11-24T09:55:55Z</time>
      </trkpt>
      <trkpt lat="44.57668" lon="0.88976">
        <ele>179.42</ele>
        <time>2013-11-24T09:56:05Z</time>
      </trkpt>
      <trkpt lat="44.57691" lon="0.89014">
        <ele>180.38</ele>
        <time>2013-11-24T09:56:16Z</time>
      </trkpt>
      <trkpt lat="44.57713" lon="0.89052">
        <ele>182.31</ele>
        <time>2013-11-24T09:56:27Z</time>
      </trkpt>
      <trkpt lat="44.57725" lon="0.89072">
        <ele>182.79</ele>
        <time>2013-11-24T09:56:38Z</time>
      </trkpt>
      <trkpt lat="44.57721" lon="0.89077">
        <ele>184.71</ele>
        <time>2013-11-24T09:57:03Z</time>
      </trkpt>
      <trkpt lat="44.57722" lon="0.89079">
        <ele>184.71</ele>
        <time>2013-11-24T09:57:23Z</time>
      </trkpt>
      <trkpt lat="44.57743" lon="0.89101">
        <ele>183.75</ele>
        <time>2013-11-24T09:57:36Z</time>
      </trkpt>
      <trkpt lat="44.5775" lon="0.89116">
        <ele>185.67</ele>
        <time>2013-11-24T09:57:45Z</time>
      </trkpt>
      <trkpt lat="44.57751" lon="0.89119">
        <ele>186.63</ele>
        <time>2013-11-24T09:57:48Z</time>
      </trkpt>
      <trkpt lat="44.57755" lon="0.89128">
        <ele>187.11</ele>
        <time>2013-11-24T09:57:52Z</time>
      </trkpt>
      <trkpt lat="44.5777" lon="0.89168">
        <ele>186.63</ele>
        <time>2013-11-24T09:58:06Z</time>
      </trkpt>
      <trkpt lat="44.57775" lon="0.89199">
        <ele>187.59</ele>
        <time>2013-11-24T09:58:16Z</time>
      </trkpt>
      <trkpt lat="44.5778" lon="0.89217">
        <ele>189.52</ele>
        <time>2013-11-24T09:58:22Z</time>
      </trkpt>
      <trkpt lat="44.57785" lon="0.89237">
        <ele>190</ele>
        <time>2013-11-24T09:58:29Z</time>
      </trkpt>
      <trkpt lat="44.57793" lon="0.89258">
        <ele>191.92</ele>
        <time>2013-11-24T09:58:37Z</time>
      </trkpt>
      <trkpt lat="44.57805" lon="0.89295">
        <ele>190.48</ele>
        <time>2013-11-24T09:58:52Z</time>
      </trkpt>
      <trkpt lat="44.57809" lon="0.89307">
        <ele>190.48</ele>
        <time>2013-11-24T09:58:57Z</time>
      </trkpt>
      <trkpt lat="44.57812" lon="0.89315">
        <ele>191.44</ele>
        <time>2013-11-24T09:59:01Z</time>
      </trkpt>
      <trkpt lat="44.57816" lon="0.89322">
        <ele>191.92</ele>
        <time>2013-11-24T09:59:04Z</time>
      </trkpt>
      <trkpt lat="44.57825" lon="0.89343">
        <ele>192.4</ele>
        <time>2013-11-24T09:59:11Z</time>
      </trkpt>
      <trkpt lat="44.57837" lon="0.89381">
        <ele>191.44</ele>
        <time>2013-11-24T09:59:25Z</time>
      </trkpt>
      <trkpt lat="44.57837" lon="0.89391">
        <ele>193.36</ele>
        <time>2013-11-24T09:59:29Z</time>
      </trkpt>
      <trkpt lat="44.57838" lon="0.89425">
        <ele>195.28</ele>
        <time>2013-11-24T09:59:43Z</time>
      </trkpt>
      <trkpt lat="44.57839" lon="0.89435">
        <ele>195.28</ele>
        <time>2013-11-24T09:59:47Z</time>
      </trkpt>
      <trkpt lat="44.57842" lon="0.89459">
        <ele>194.32</ele>
        <time>2013-11-24T09:59:52Z</time>
      </trkpt>
      <trkpt lat="44.5784" lon="0.89487">
        <ele>192.4</ele>
        <time>2013-11-24T09:59:56Z</time>
      </trkpt>
      <trkpt lat="44.57832" lon="0.89512">
        <ele>188.56</ele>
        <time>2013-11-24T10:00:06Z</time>
      </trkpt>
      <trkpt lat="44.57831" lon="0.89516">
        <ele>187.11</ele>
        <time>2013-11-24T10:00:28Z</time>
      </trkpt>
      <trkpt lat="44.57832" lon="0.89517">
        <ele>187.59</ele>
        <time>2013-11-24T10:00:46Z</time>
      </trkpt>
      <trkpt lat="44.57832" lon="0.89516">
        <ele>187.59</ele>
        <time>2013-11-24T10:01:03Z</time>
      </trkpt>
      <trkpt lat="44.57852" lon="0.89499">
        <ele>186.15</ele>
        <time>2013-11-24T10:01:13Z</time>
      </trkpt>
      <trkpt lat="44.57878" lon="0.89471">
        <ele>180.38</ele>
        <time>2013-11-24T10:01:22Z</time>
      </trkpt>
      <trkpt lat="44.57892" lon="0.8945">
        <ele>177.5</ele>
        <time>2013-11-24T10:01:27Z</time>
      </trkpt>
      <trkpt lat="44.57921" lon="0.89405">
        <ele>173.17</ele>
        <time>2013-11-24T10:01:38Z</time>
      </trkpt>
      <trkpt lat="44.57937" lon="0.89384">
        <ele>170.29</ele>
        <time>2013-11-24T10:01:43Z</time>
      </trkpt>
      <trkpt lat="44.57945" lon="0.89355">
        <ele>165.96</ele>
        <time>2013-11-24T10:01:49Z</time>
      </trkpt>
      <trkpt lat="44.57958" lon="0.89306">
        <ele>163.08</ele>
        <time>2013-11-24T10:01:59Z</time>
      </trkpt>
      <trkpt lat="44.57983" lon="0.89265">
        <ele>163.56</ele>
        <time>2013-11-24T10:02:11Z</time>
      </trkpt>
      <trkpt lat="44.57991" lon="0.89244">
        <ele>164.52</ele>
        <time>2013-11-24T10:02:16Z</time>
      </trkpt>
      <trkpt lat="44.58025" lon="0.89216">
        <ele>166.45</ele>
        <time>2013-11-24T10:02:30Z</time>
      </trkpt>
      <trkpt lat="44.58047" lon="0.89212">
        <ele>168.85</ele>
        <time>2013-11-24T10:02:41Z</time>
      </trkpt>
      <trkpt lat="44.58064" lon="0.89217">
        <ele>171.73</ele>
        <time>2013-11-24T10:02:53Z</time>
      </trkpt>
      <trkpt lat="44.58079" lon="0.8921">
        <ele>174.14</ele>
        <time>2013-11-24T10:03:03Z</time>
      </trkpt>
      <trkpt lat="44.58087" lon="0.89194">
        <ele>174.62</ele>
        <time>2013-11-24T10:03:11Z</time>
      </trkpt>
      <trkpt lat="44.58107" lon="0.89159">
        <ele>176.54</ele>
        <time>2013-11-24T10:03:27Z</time>
      </trkpt>
      <trkpt lat="44.58107" lon="0.89141">
        <ele>179.42</ele>
        <time>2013-11-24T10:03:35Z</time>
      </trkpt>
      <trkpt lat="44.58105" lon="0.89133">
        <ele>180.38</ele>
        <time>2013-11-24T10:03:40Z</time>
      </trkpt>
      <trkpt lat="44.58104" lon="0.89118">
        <ele>185.19</ele>
        <time>2013-11-24T10:03:51Z</time>
      </trkpt>
      <trkpt lat="44.58108" lon="0.89112">
        <ele>187.59</ele>
        <time>2013-11-24T10:04:06Z</time>
      </trkpt>
      <trkpt lat="44.58111" lon="0.8911">
        <ele>190.96</ele>
        <time>2013-11-24T10:04:21Z</time>
      </trkpt>
      <trkpt lat="44.58118" lon="0.89105">
        <ele>192.88</ele>
        <time>2013-11-24T10:04:27Z</time>
      </trkpt>
      <trkpt lat="44.58126" lon="0.89101">
        <ele>193.36</ele>
        <time>2013-11-24T10:04:40Z</time>
      </trkpt>
      <trkpt lat="44.58127" lon="0.89098">
        <ele>195.28</ele>
        <time>2013-11-24T10:04:58Z</time>
      </trkpt>
      <trkpt lat="44.58143" lon="0.89098">
        <ele>197.69</ele>
        <time>2013-11-24T10:05:08Z</time>
      </trkpt>
      <trkpt lat="44.58159" lon="0.89097">
        <ele>196.73</ele>
        <time>2013-11-24T10:05:18Z</time>
      </trkpt>
      <trkpt lat="44.5817" lon="0.89096">
        <ele>197.69</ele>
        <time>2013-11-24T10:05:23Z</time>
      </trkpt>
      <trkpt lat="44.58179" lon="0.89089">
        <ele>199.13</ele>
        <time>2013-11-24T10:05:28Z</time>
      </trkpt>
      <trkpt lat="44.58184" lon="0.89084">
        <ele>199.13</ele>
        <time>2013-11-24T10:05:31Z</time>
      </trkpt>
      <trkpt lat="44.58191" lon="0.89071">
        <ele>200.57</ele>
        <time>2013-11-24T10:05:37Z</time>
      </trkpt>
      <trkpt lat="44.58193" lon="0.89064">
        <ele>201.53</ele>
        <time>2013-11-24T10:05:41Z</time>
      </trkpt>
      <trkpt lat="44.58205" lon="0.89036">
        <ele>205.38</ele>
        <time>2013-11-24T10:05:56Z</time>
      </trkpt>
      <trkpt lat="44.58223" lon="0.89013">
        <ele>206.34</ele>
        <time>2013-11-24T10:06:10Z</time>
      </trkpt>
      <trkpt lat="44.58247" lon="0.8899">
        <ele>207.3</ele>
        <time>2013-11-24T10:06:23Z</time>
      </trkpt>
      <trkpt lat="44.58275" lon="0.88967">
        <ele>208.74</ele>
        <time>2013-11-24T10:06:37Z</time>
      </trkpt>
      <trkpt lat="44.58311" lon="0.88932">
        <ele>208.26</ele>
        <time>2013-11-24T10:06:54Z</time>
      </trkpt>
      <trkpt lat="44.58311" lon="0.88931">
        <ele>207.78</ele>
        <time>2013-11-24T10:07:12Z</time>
      </trkpt>
      <trkpt lat="44.58312" lon="0.88933">
        <ele>205.38</ele>
        <time>2013-11-24T10:07:34Z</time>
      </trkpt>
      <trkpt lat="44.58312" lon="0.88934">
        <ele>205.38</ele>
        <time>2013-11-24T10:07:55Z</time>
      </trkpt>
      <trkpt lat="44.58312" lon="0.88932">
        <ele>208.26</ele>
        <time>2013-11-24T10:08:20Z</time>
      </trkpt>
      <trkpt lat="44.5831" lon="0.88932">
        <ele>206.82</ele>
        <time>2013-11-24T10:08:44Z</time>
      </trkpt>
      <trkpt lat="44.5831" lon="0.88931">
        <ele>203.94</ele>
        <time>2013-11-24T10:09:20Z</time>
      </trkpt>
      <trkpt lat="44.58314" lon="0.88932">
        <ele>204.42</ele>
        <time>2013-11-24T10:09:52Z</time>
      </trkpt>
      <trkpt lat="44.58325" lon="0.88919">
        <ele>205.38</ele>
        <time>2013-11-24T10:09:57Z</time>
      </trkpt>
      <trkpt lat="44.58348" lon="0.88892">
        <ele>203.46</ele>
        <time>2013-11-24T10:10:03Z</time>
      </trkpt>
      <trkpt lat="44.58379" lon="0.88854">
        <ele>195.77</ele>
        <time>2013-11-24T10:10:12Z</time>
      </trkpt>
      <trkpt lat="44.58404" lon="0.88874">
        <ele>194.32</ele>
        <time>2013-11-24T10:10:20Z</time>
      </trkpt>
      <trkpt lat="44.58442" lon="0.88906">
        <ele>193.84</ele>
        <time>2013-11-24T10:10:31Z</time>
      </trkpt>
      <trkpt lat="44.58477" lon="0.88924">
        <ele>194.8</ele>
        <time>2013-11-24T10:10:43Z</time>
      </trkpt>
      <trkpt lat="44.58476" lon="0.88923">
        <ele>195.28</ele>
        <time>2013-11-24T10:10:57Z</time>
      </trkpt>
      <trkpt lat="44.58477" lon="0.88921">
        <ele>198.17</ele>
        <time>2013-11-24T10:11:43Z</time>
      </trkpt>
      <trkpt lat="44.58476" lon="0.88922">
        <ele>198.65</ele>
        <time>2013-11-24T10:12:36Z</time>
      </trkpt>
      <trkpt lat="44.58475" lon="0.88921">
        <ele>199.13</ele>
        <time>2013-11-24T10:13:21Z</time>
      </trkpt>
      <trkpt lat="44.58476" lon="0.88921">
        <ele>199.13</ele>
        <time>2013-11-24T10:14:00Z</time>
      </trkpt>
      <trkpt lat="44.58477" lon="0.88925">
        <ele>196.73</ele>
        <time>2013-11-24T10:14:23Z</time>
      </trkpt>
      <trkpt lat="44.58477" lon="0.88925">
        <ele>197.21</ele>
        <time>2013-11-24T10:14:40Z</time>
      </trkpt>
      <trkpt lat="44.58476" lon="0.88926">
        <ele>197.69</ele>
        <time>2013-11-24T10:15:00Z</time>
      </trkpt>
      <trkpt lat="44.58476" lon="0.88927">
        <ele>196.73</ele>
        <time>2013-11-24T10:15:23Z</time>
      </trkpt>
      <trkpt lat="44.58476" lon="0.88926">
        <ele>196.73</ele>
        <time>2013-11-24T10:15:45Z</time>
      </trkpt>
      <trkpt lat="44.58477" lon="0.88928">
        <ele>197.21</ele>
        <time>2013-11-24T10:16:02Z</time>
      </trkpt>
      <trkpt lat="44.58482" lon="0.88931">
        <ele>195.28</ele>
        <time>2013-11-24T10:16:22Z</time>
      </trkpt>
      <trkpt lat="44.58522" lon="0.88958">
        <ele>191.92</ele>
        <time>2013-11-24T10:16:32Z</time>
      </trkpt>
      <trkpt lat="44.58542" lon="0.88975">
        <ele>189.52</ele>
        <time>2013-11-24T10:16:36Z</time>
      </trkpt>
      <trkpt lat="44.58545" lon="0.89002">
        <ele>188.56</ele>
        <time>2013-11-24T10:16:41Z</time>
      </trkpt>
      <trkpt lat="44.58516" lon="0.89098">
        <ele>193.84</ele>
        <time>2013-11-24T10:16:59Z</time>
      </trkpt>
      <trkpt lat="44.58491" lon="0.89194">
        <ele>197.21</ele>
        <time>2013-11-24T10:17:18Z</time>
      </trkpt>
      <trkpt lat="44.5849" lon="0.89257">
        <ele>200.57</ele>
        <time>2013-11-24T10:17:30Z</time>
      </trkpt>
      <trkpt lat="44.5849" lon="0.8926">
        <ele>200.57</ele>
        <time>2013-11-24T10:17:31Z</time>
      </trkpt>
      <trkpt lat="44.58505" lon="0.89284">
        <ele>202.98</ele>
        <time>2013-11-24T10:17:39Z</time>
      </trkpt>
      <trkpt lat="44.58537" lon="0.89281">
        <ele>204.9</ele>
        <time>2013-11-24T10:17:50Z</time>
      </trkpt>
      <trkpt lat="44.58555" lon="0.89273">
        <ele>203.46</ele>
        <time>2013-11-24T10:17:55Z</time>
      </trkpt>
      <trkpt lat="44.586" lon="0.8925">
        <ele>201.05</ele>
        <time>2013-11-24T10:18:06Z</time>
      </trkpt>
      <trkpt lat="44.58608" lon="0.89253">
        <ele>201.05</ele>
        <time>2013-11-24T10:18:08Z</time>
      </trkpt>
      <trkpt lat="44.5864" lon="0.89267">
        <ele>199.13</ele>
        <time>2013-11-24T10:18:15Z</time>
      </trkpt>
      <trkpt lat="44.58658" lon="0.89281">
        <ele>197.69</ele>
        <time>2013-11-24T10:18:19Z</time>
      </trkpt>
      <trkpt lat="44.58668" lon="0.89288">
        <ele>197.69</ele>
        <time>2013-11-24T10:18:21Z</time>
      </trkpt>
      <trkpt lat="44.5868" lon="0.89295">
        <ele>197.21</ele>
        <time>2013-11-24T10:18:24Z</time>
      </trkpt>
      <trkpt lat="44.58685" lon="0.893">
        <ele>197.21</ele>
        <time>2013-11-24T10:18:26Z</time>
      </trkpt>
      <trkpt lat="44.58697" lon="0.89346">
        <ele>199.61</ele>
        <time>2013-11-24T10:18:40Z</time>
      </trkpt>
      <trkpt lat="44.58707" lon="0.89381">
        <ele>202.98</ele>
        <time>2013-11-24T10:18:52Z</time>
      </trkpt>
      <trkpt lat="44.58713" lon="0.89431">
        <ele>203.94</ele>
        <time>2013-11-24T10:19:07Z</time>
      </trkpt>
      <trkpt lat="44.58714" lon="0.89487">
        <ele>203.94</ele>
        <time>2013-11-24T10:19:22Z</time>
      </trkpt>
      <trkpt lat="44.58725" lon="0.89529">
        <ele>206.34</ele>
        <time>2013-11-24T10:19:34Z</time>
      </trkpt>
      <trkpt lat="44.58743" lon="0.89562">
        <ele>208.74</ele>
        <time>2013-11-24T10:19:46Z</time>
      </trkpt>
      <trkpt lat="44.58764" lon="0.89592">
        <ele>213.07</ele>
        <time>2013-11-24T10:19:59Z</time>
      </trkpt>
      <trkpt lat="44.58791" lon="0.89615">
        <ele>216.43</ele>
        <time>2013-11-24T10:20:13Z</time>
      </trkpt>
      <trkpt lat="44.58813" lon="0.8964">
        <ele>218.84</ele>
        <time>2013-11-24T10:20:26Z</time>
      </trkpt>
      <trkpt lat="44.58842" lon="0.89661">
        <ele>219.8</ele>
        <time>2013-11-24T10:20:41Z</time>
      </trkpt>
      <trkpt lat="44.58853" lon="0.89691">
        <ele>219.32</ele>
        <time>2013-11-24T10:20:55Z</time>
      </trkpt>
      <trkpt lat="44.58854" lon="0.89695">
        <ele>219.8</ele>
        <time>2013-11-24T10:20:58Z</time>
      </trkpt>
      <trkpt lat="44.58852" lon="0.89708">
        <ele>220.28</ele>
        <time>2013-11-24T10:21:12Z</time>
      </trkpt>
      <trkpt lat="44.58852" lon="0.89708">
        <ele>219.8</ele>
        <time>2013-11-24T10:21:31Z</time>
      </trkpt>
      <trkpt lat="44.58851" lon="0.89715">
        <ele>221.24</ele>
        <time>2013-11-24T10:21:52Z</time>
      </trkpt>
      <trkpt lat="44.58867" lon="0.89759">
        <ele>221.24</ele>
        <time>2013-11-24T10:22:05Z</time>
      </trkpt>
      <trkpt lat="44.58906" lon="0.89823">
        <ele>221.72</ele>
        <time>2013-11-24T10:22:22Z</time>
      </trkpt>
      <trkpt lat="44.58923" lon="0.89881">
        <ele>223.16</ele>
        <time>2013-11-24T10:22:35Z</time>
      </trkpt>
      <trkpt lat="44.58911" lon="0.89984">
        <ele>224.61</ele>
        <time>2013-11-24T10:22:53Z</time>
      </trkpt>
      <trkpt lat="44.58897" lon="0.90094">
        <ele>226.05</ele>
        <time>2013-11-24T10:23:11Z</time>
      </trkpt>
      <trkpt lat="44.58899" lon="0.90112">
        <ele>227.01</ele>
        <time>2013-11-24T10:23:14Z</time>
      </trkpt>
      <trkpt lat="44.58919" lon="0.90177">
        <ele>228.45</ele>
        <time>2013-11-24T10:23:26Z</time>
      </trkpt>
      <trkpt lat="44.58923" lon="0.90202">
        <ele>227.49</ele>
        <time>2013-11-24T10:23:30Z</time>
      </trkpt>
      <trkpt lat="44.5892" lon="0.90269">
        <ele>227.97</ele>
        <time>2013-11-24T10:23:40Z</time>
      </trkpt>
      <trkpt lat="44.58921" lon="0.90282">
        <ele>227.97</ele>
        <time>2013-11-24T10:23:42Z</time>
      </trkpt>
      <trkpt lat="44.58931" lon="0.90309">
        <ele>227.97</ele>
        <time>2013-11-24T10:23:47Z</time>
      </trkpt>
      <trkpt lat="44.58983" lon="0.90381">
        <ele>221.72</ele>
        <time>2013-11-24T10:24:01Z</time>
      </trkpt>
      <trkpt lat="44.58989" lon="0.90385">
        <ele>221.72</ele>
        <time>2013-11-24T10:24:05Z</time>
      </trkpt>
      <trkpt lat="44.58998" lon="0.90385">
        <ele>221.24</ele>
        <time>2013-11-24T10:24:08Z</time>
      </trkpt>
      <trkpt lat="44.59016" lon="0.90413">
        <ele>219.32</ele>
        <time>2013-11-24T10:24:14Z</time>
      </trkpt>
      <trkpt lat="44.59046" lon="0.90486">
        <ele>214.51</ele>
        <time>2013-11-24T10:24:22Z</time>
      </trkpt>
      <trkpt lat="44.5906" lon="0.90589">
        <ele>205.38</ele>
        <time>2013-11-24T10:24:31Z</time>
      </trkpt>
      <trkpt lat="44.59068" lon="0.90621">
        <ele>202.01</ele>
        <time>2013-11-24T10:24:34Z</time>
      </trkpt>
      <trkpt lat="44.59071" lon="0.90651">
        <ele>198.65</ele>
        <time>2013-11-24T10:24:37Z</time>
      </trkpt>
      <trkpt lat="44.5906" lon="0.90694">
        <ele>194.32</ele>
        <time>2013-11-24T10:24:41Z</time>
      </trkpt>
      <trkpt lat="44.59021" lon="0.90781">
        <ele>185.67</ele>
        <time>2013-11-24T10:24:49Z</time>
      </trkpt>
      <trkpt lat="44.59015" lon="0.90802">
        <ele>183.27</ele>
        <time>2013-11-24T10:24:51Z</time>
      </trkpt>
      <trkpt lat="44.59015" lon="0.90843">
        <ele>181.83</ele>
        <time>2013-11-24T10:24:59Z</time>
      </trkpt>
      <trkpt lat="44.59014" lon="0.90846">
        <ele>182.79</ele>
        <time>2013-11-24T10:25:00Z</time>
      </trkpt>
      <trkpt lat="44.58991" lon="0.90864">
        <ele>189.04</ele>
        <time>2013-11-24T10:25:11Z</time>
      </trkpt>
      <trkpt lat="44.58975" lon="0.90872">
        <ele>192.4</ele>
        <time>2013-11-24T10:25:19Z</time>
      </trkpt>
      <trkpt lat="44.58967" lon="0.90877">
        <ele>193.84</ele>
        <time>2013-11-24T10:25:23Z</time>
      </trkpt>
      <trkpt lat="44.58945" lon="0.90902">
        <ele>199.61</ele>
        <time>2013-11-24T10:25:36Z</time>
      </trkpt>
      <trkpt lat="44.5892" lon="0.90932">
        <ele>203.94</ele>
        <time>2013-11-24T10:25:49Z</time>
      </trkpt>
      <trkpt lat="44.58899" lon="0.9096">
        <ele>207.3</ele>
        <time>2013-11-24T10:26:00Z</time>
      </trkpt>
      <trkpt lat="44.58886" lon="0.90997">
        <ele>211.63</ele>
        <time>2013-11-24T10:26:11Z</time>
      </trkpt>
      <trkpt lat="44.58868" lon="0.91039">
        <ele>214.51</ele>
        <time>2013-11-24T10:26:24Z</time>
      </trkpt>
      <trkpt lat="44.5885" lon="0.91087">
        <ele>214.03</ele>
        <time>2013-11-24T10:26:37Z</time>
      </trkpt>
      <trkpt lat="44.58833" lon="0.9113">
        <ele>212.11</ele>
        <time>2013-11-24T10:26:48Z</time>
      </trkpt>
      <trkpt lat="44.58825" lon="0.91171">
        <ele>212.11</ele>
        <time>2013-11-24T10:26:58Z</time>
      </trkpt>
      <trkpt lat="44.58816" lon="0.91214">
        <ele>213.07</ele>
        <time>2013-11-24T10:27:08Z</time>
      </trkpt>
      <trkpt lat="44.58803" lon="0.91256">
        <ele>213.55</ele>
        <time>2013-11-24T10:27:19Z</time>
      </trkpt>
      <trkpt lat="44.58783" lon="0.91301">
        <ele>220.76</ele>
        <time>2013-11-24T10:27:31Z</time>
      </trkpt>
      <trkpt lat="44.58754" lon="0.91343">
        <ele>225.09</ele>
        <time>2013-11-24T10:27:43Z</time>
      </trkpt>
      <trkpt lat="44.58724" lon="0.91398">
        <ele>231.33</ele>
        <time>2013-11-24T10:27:58Z</time>
      </trkpt>
      <trkpt lat="44.58682" lon="0.91446">
        <ele>232.78</ele>
        <time>2013-11-24T10:28:15Z</time>
      </trkpt>
      <trkpt lat="44.58654" lon="0.91471">
        <ele>233.26</ele>
        <time>2013-11-24T10:28:27Z</time>
      </trkpt>
      <trkpt lat="44.58626" lon="0.91501">
        <ele>236.62</ele>
        <time>2013-11-24T10:28:40Z</time>
      </trkpt>
      <trkpt lat="44.58597" lon="0.91528">
        <ele>239.51</ele>
        <time>2013-11-24T10:28:53Z</time>
      </trkpt>
      <trkpt lat="44.58595" lon="0.91531">
        <ele>239.51</ele>
        <time>2013-11-24T10:28:55Z</time>
      </trkpt>
      <trkpt lat="44.5859" lon="0.91537">
        <ele>238.54</ele>
        <time>2013-11-24T10:29:08Z</time>
      </trkpt>
      <trkpt lat="44.5859" lon="0.91538">
        <ele>237.58</ele>
        <time>2013-11-24T10:29:23Z</time>
      </trkpt>
      <trkpt lat="44.58591" lon="0.91537">
        <ele>236.14</ele>
        <time>2013-11-24T10:29:46Z</time>
      </trkpt>
      <trkpt lat="44.5859" lon="0.91539">
        <ele>234.7</ele>
        <time>2013-11-24T10:30:12Z</time>
      </trkpt>
      <trkpt lat="44.58589" lon="0.91538">
        <ele>235.66</ele>
        <time>2013-11-24T10:30:33Z</time>
      </trkpt>
      <trkpt lat="44.58589" lon="0.91536">
        <ele>237.58</ele>
        <time>2013-11-24T10:30:52Z</time>
      </trkpt>
      <trkpt lat="44.58589" lon="0.91538">
        <ele>238.06</ele>
        <time>2013-11-24T10:31:12Z</time>
      </trkpt>
      <trkpt lat="44.5859" lon="0.9154">
        <ele>237.1</ele>
        <time>2013-11-24T10:31:24Z</time>
      </trkpt>
      <trkpt lat="44.58582" lon="0.91574">
        <ele>235.18</ele>
        <time>2013-11-24T10:31:36Z</time>
      </trkpt>
      <trkpt lat="44.5857" lon="0.91596">
        <ele>234.7</ele>
        <time>2013-11-24T10:31:41Z</time>
      </trkpt>
      <trkpt lat="44.5854" lon="0.91633">
        <ele>231.81</ele>
        <time>2013-11-24T10:31:48Z</time>
      </trkpt>
      <trkpt lat="44.58533" lon="0.9165">
        <ele>229.89</ele>
        <time>2013-11-24T10:31:50Z</time>
      </trkpt>
      <trkpt lat="44.58488" lon="0.91714">
        <ele>224.61</ele>
        <time>2013-11-24T10:31:58Z</time>
      </trkpt>
      <trkpt lat="44.58463" lon="0.91707">
        <ele>224.12</ele>
        <time>2013-11-24T10:32:02Z</time>
      </trkpt>
      <trkpt lat="44.58425" lon="0.91694">
        <ele>227.01</ele>
        <time>2013-11-24T10:32:09Z</time>
      </trkpt>
      <trkpt lat="44.58416" lon="0.91692">
        <ele>227.97</ele>
        <time>2013-11-24T10:32:11Z</time>
      </trkpt>
      <trkpt lat="44.58401" lon="0.91697">
        <ele>228.93</ele>
        <time>2013-11-24T10:32:14Z</time>
      </trkpt>
      <trkpt lat="44.58346" lon="0.91739">
        <ele>233.74</ele>
        <time>2013-11-24T10:32:29Z</time>
      </trkpt>
      <trkpt lat="44.58314" lon="0.91777">
        <ele>235.66</ele>
        <time>2013-11-24T10:32:41Z</time>
      </trkpt>
      <trkpt lat="44.58309" lon="0.91784">
        <ele>235.66</ele>
        <time>2013-11-24T10:32:43Z</time>
      </trkpt>
      <trkpt lat="44.5832" lon="0.91812">
        <ele>235.66</ele>
        <time>2013-11-24T10:32:53Z</time>
      </trkpt>
      <trkpt lat="44.58329" lon="0.91823">
        <ele>235.18</ele>
        <time>2013-11-24T10:32:58Z</time>
      </trkpt>
      <trkpt lat="44.58356" lon="0.91886">
        <ele>235.18</ele>
        <time>2013-11-24T10:33:14Z</time>
      </trkpt>
      <trkpt lat="44.58375" lon="0.91951">
        <ele>235.18</ele>
        <time>2013-11-24T10:33:28Z</time>
      </trkpt>
      <trkpt lat="44.58401" lon="0.91989">
        <ele>234.22</ele>
        <time>2013-11-24T10:33:37Z</time>
      </trkpt>
      <trkpt lat="44.58445" lon="0.92021">
        <ele>234.7</ele>
        <time>2013-11-24T10:33:48Z</time>
      </trkpt>
      <trkpt lat="44.58519" lon="0.92064">
        <ele>237.1</ele>
        <time>2013-11-24T10:34:07Z</time>
      </trkpt>
      <trkpt lat="44.58536" lon="0.92083">
        <ele>237.58</ele>
        <time>2013-11-24T10:34:12Z</time>
      </trkpt>
      <trkpt lat="44.58553" lon="0.92109">
        <ele>238.06</ele>
        <time>2013-11-24T10:34:18Z</time>
      </trkpt>
      <trkpt lat="44.5856" lon="0.92123">
        <ele>238.06</ele>
        <time>2013-11-24T10:34:21Z</time>
      </trkpt>
      <trkpt lat="44.58574" lon="0.92122">
        <ele>237.58</ele>
        <time>2013-11-24T10:34:25Z</time>
      </trkpt>
      <trkpt lat="44.58629" lon="0.92067">
        <ele>239.02</ele>
        <time>2013-11-24T10:34:40Z</time>
      </trkpt>
      <trkpt lat="44.58636" lon="0.92047">
        <ele>239.51</ele>
        <time>2013-11-24T10:34:44Z</time>
      </trkpt>
      <trkpt lat="44.58652" lon="0.92003">
        <ele>239.51</ele>
        <time>2013-11-24T10:34:54Z</time>
      </trkpt>
      <trkpt lat="44.58688" lon="0.91995">
        <ele>242.87</ele>
        <time>2013-11-24T10:35:05Z</time>
      </trkpt>
      <trkpt lat="44.58716" lon="0.91967">
        <ele>245.75</ele>
        <time>2013-11-24T10:35:15Z</time>
      </trkpt>
      <trkpt lat="44.58764" lon="0.91912">
        <ele>245.75</ele>
        <time>2013-11-24T10:35:31Z</time>
      </trkpt>
      <trkpt lat="44.58799" lon="0.91868">
        <ele>246.23</ele>
        <time>2013-11-24T10:35:43Z</time>
      </trkpt>
      <trkpt lat="44.58813" lon="0.91854">
        <ele>245.75</ele>
        <time>2013-11-24T10:35:47Z</time>
      </trkpt>
      <trkpt lat="44.58829" lon="0.91843">
        <ele>245.27</ele>
        <time>2013-11-24T10:35:51Z</time>
      </trkpt>
      <trkpt lat="44.58847" lon="0.91819">
        <ele>244.79</ele>
        <time>2013-11-24T10:35:57Z</time>
      </trkpt>
      <trkpt lat="44.58867" lon="0.91826">
        <ele>244.31</ele>
        <time>2013-11-24T10:36:04Z</time>
      </trkpt>
      <trkpt lat="44.58872" lon="0.91836">
        <ele>244.31</ele>
        <time>2013-11-24T10:36:06Z</time>
      </trkpt>
      <trkpt lat="44.58891" lon="0.91885">
        <ele>244.79</ele>
        <time>2013-11-24T10:36:16Z</time>
      </trkpt>
      <trkpt lat="44.58916" lon="0.91893">
        <ele>245.75</ele>
        <time>2013-11-24T10:36:27Z</time>
      </trkpt>
      <trkpt lat="44.58918" lon="0.91894">
        <ele>245.75</ele>
        <time>2013-11-24T10:36:28Z</time>
      </trkpt>
      <trkpt lat="44.58951" lon="0.91889">
        <ele>242.87</ele>
        <time>2013-11-24T10:36:39Z</time>
      </trkpt>
      <trkpt lat="44.58965" lon="0.9188">
        <ele>241.43</ele>
        <time>2013-11-24T10:36:43Z</time>
      </trkpt>
      <trkpt lat="44.58989" lon="0.91872">
        <ele>238.54</ele>
        <time>2013-11-24T10:36:48Z</time>
      </trkpt>
      <trkpt lat="44.59062" lon="0.91839">
        <ele>233.26</ele>
        <time>2013-11-24T10:36:58Z</time>
      </trkpt>
      <trkpt lat="44.59144" lon="0.91804">
        <ele>227.01</ele>
        <time>2013-11-24T10:37:06Z</time>
      </trkpt>
      <trkpt lat="44.59175" lon="0.91804">
        <ele>225.57</ele>
        <time>2013-11-24T10:37:11Z</time>
      </trkpt>
      <trkpt lat="44.59211" lon="0.91802">
        <ele>226.05</ele>
        <time>2013-11-24T10:37:17Z</time>
      </trkpt>
      <trkpt lat="44.59237" lon="0.91799">
        <ele>225.09</ele>
        <time>2013-11-24T10:37:21Z</time>
      </trkpt>
      <trkpt lat="44.59265" lon="0.91787">
        <ele>224.12</ele>
        <time>2013-11-24T10:37:26Z</time>
      </trkpt>
      <trkpt lat="44.5927" lon="0.91781">
        <ele>223.64</ele>
        <time>2013-11-24T10:37:35Z</time>
      </trkpt>
      <trkpt lat="44.5927" lon="0.9178">
        <ele>224.12</ele>
        <time>2013-11-24T10:37:54Z</time>
      </trkpt>
      <trkpt lat="44.59273" lon="0.91781">
        <ele>223.64</ele>
        <time>2013-11-24T10:38:21Z</time>
      </trkpt>
      <trkpt lat="44.59275" lon="0.9178">
        <ele>223.64</ele>
        <time>2013-11-24T10:38:28Z</time>
      </trkpt>
      <trkpt lat="44.5928" lon="0.91778">
        <ele>224.61</ele>
        <time>2013-11-24T10:38:42Z</time>
      </trkpt>
      <trkpt lat="44.59283" lon="0.91775">
        <ele>225.57</ele>
        <time>2013-11-24T10:38:57Z</time>
      </trkpt>
      <trkpt lat="44.59288" lon="0.91774">
        <ele>227.01</ele>
        <time>2013-11-24T10:39:17Z</time>
      </trkpt>
      <trkpt lat="44.59292" lon="0.91774">
        <ele>226.53</ele>
        <time>2013-11-24T10:39:20Z</time>
      </trkpt>
      <trkpt lat="44.59318" lon="0.91757">
        <ele>228.45</ele>
        <time>2013-11-24T10:39:32Z</time>
      </trkpt>
      <trkpt lat="44.5936" lon="0.91738">
        <ele>223.64</ele>
        <time>2013-11-24T10:39:42Z</time>
      </trkpt>
      <trkpt lat="44.59381" lon="0.91734">
        <ele>221.24</ele>
        <time>2013-11-24T10:39:46Z</time>
      </trkpt>
      <trkpt lat="44.59393" lon="0.91733">
        <ele>219.8</ele>
        <time>2013-11-24T10:39:48Z</time>
      </trkpt>
      <trkpt lat="44.59426" lon="0.91717">
        <ele>215.47</ele>
        <time>2013-11-24T10:39:54Z</time>
      </trkpt>
      <trkpt lat="44.59449" lon="0.91711">
        <ele>213.07</ele>
        <time>2013-11-24T10:40:02Z</time>
      </trkpt>
      <trkpt lat="44.59455" lon="0.91708">
        <ele>214.99</ele>
        <time>2013-11-24T10:40:11Z</time>
      </trkpt>
      <trkpt lat="44.59464" lon="0.91701">
        <ele>214.51</ele>
        <time>2013-11-24T10:40:17Z</time>
      </trkpt>
      <trkpt lat="44.59486" lon="0.91674">
        <ele>214.99</ele>
        <time>2013-11-24T10:40:28Z</time>
      </trkpt>
      <trkpt lat="44.59512" lon="0.91638">
        <ele>217.4</ele>
        <time>2013-11-24T10:40:41Z</time>
      </trkpt>
      <trkpt lat="44.5954" lon="0.91627">
        <ele>220.28</ele>
        <time>2013-11-24T10:40:55Z</time>
      </trkpt>
      <trkpt lat="44.59578" lon="0.91614">
        <ele>220.76</ele>
        <time>2013-11-24T10:41:07Z</time>
      </trkpt>
      <trkpt lat="44.59582" lon="0.91613">
        <ele>220.76</ele>
        <time>2013-11-24T10:41:08Z</time>
      </trkpt>
      <trkpt lat="44.59607" lon="0.9161">
        <ele>220.28</ele>
        <time>2013-11-24T10:41:13Z</time>
      </trkpt>
      <trkpt lat="44.59617" lon="0.91603">
        <ele>220.28</ele>
        <time>2013-11-24T10:41:15Z</time>
      </trkpt>
      <trkpt lat="44.59671" lon="0.91578">
        <ele>222.2</ele>
        <time>2013-11-24T10:41:28Z</time>
      </trkpt>
      <trkpt lat="44.59691" lon="0.91567">
        <ele>224.61</ele>
        <time>2013-11-24T10:41:38Z</time>
      </trkpt>
      <trkpt lat="44.59693" lon="0.91565">
        <ele>223.64</ele>
        <time>2013-11-24T10:41:54Z</time>
      </trkpt>
      <trkpt lat="44.59697" lon="0.91565">
        <ele>222.2</ele>
        <time>2013-11-24T10:42:24Z</time>
      </trkpt>
      <trkpt lat="44.59698" lon="0.91564">
        <ele>222.2</ele>
        <time>2013-11-24T10:42:34Z</time>
      </trkpt>
      <trkpt lat="44.59711" lon="0.91521">
        <ele>222.68</ele>
        <time>2013-11-24T10:42:47Z</time>
      </trkpt>
      <trkpt lat="44.59727" lon="0.91423">
        <ele>222.2</ele>
        <time>2013-11-24T10:43:06Z</time>
      </trkpt>
      <trkpt lat="44.59736" lon="0.91353">
        <ele>223.64</ele>
        <time>2013-11-24T10:43:19Z</time>
      </trkpt>
      <trkpt lat="44.59742" lon="0.91342">
        <ele>224.61</ele>
        <time>2013-11-24T10:43:22Z</time>
      </trkpt>
      <trkpt lat="44.59744" lon="0.91328">
        <ele>226.05</ele>
        <time>2013-11-24T10:43:26Z</time>
      </trkpt>
      <trkpt lat="44.59755" lon="0.91255">
        <ele>224.12</ele>
        <time>2013-11-24T10:43:40Z</time>
      </trkpt>
      <trkpt lat="44.5978" lon="0.91161">
        <ele>220.76</ele>
        <time>2013-11-24T10:43:56Z</time>
      </trkpt>
      <trkpt lat="44.59784" lon="0.91148">
        <ele>219.8</ele>
        <time>2013-11-24T10:43:58Z</time>
      </trkpt>
      <trkpt lat="44.59823" lon="0.91067">
        <ele>213.55</ele>
        <time>2013-11-24T10:44:08Z</time>
      </trkpt>
      <trkpt lat="44.59887" lon="0.90973">
        <ele>203.94</ele>
        <time>2013-11-24T10:44:19Z</time>
      </trkpt>
      <trkpt lat="44.59925" lon="0.90929">
        <ele>198.65</ele>
        <time>2013-11-24T10:44:25Z</time>
      </trkpt>
      <trkpt lat="44.59948" lon="0.90845">
        <ele>192.4</ele>
        <time>2013-11-24T10:44:33Z</time>
      </trkpt>
      <trkpt lat="44.59967" lon="0.90715">
        <ele>187.59</ele>
        <time>2013-11-24T10:44:44Z</time>
      </trkpt>
      <trkpt lat="44.5998" lon="0.90676">
        <ele>187.59</ele>
        <time>2013-11-24T10:44:48Z</time>
      </trkpt>
      <trkpt lat="44.6" lon="0.90645">
        <ele>188.08</ele>
        <time>2013-11-24T10:44:53Z</time>
      </trkpt>
      <trkpt lat="44.60003" lon="0.90575">
        <ele>183.75</ele>
        <time>2013-11-24T10:45:01Z</time>
      </trkpt>
      <trkpt lat="44.60005" lon="0.90546">
        <ele>181.35</ele>
        <time>2013-11-24T10:45:03Z</time>
      </trkpt>
      <trkpt lat="44.59995" lon="0.90351">
        <ele>174.14</ele>
        <time>2013-11-24T10:45:17Z</time>
      </trkpt>
      <trkpt lat="44.5999" lon="0.9027">
        <ele>169.33</ele>
        <time>2013-11-24T10:45:24Z</time>
      </trkpt>
      <trkpt lat="44.59956" lon="0.90139">
        <ele>157.79</ele>
        <time>2013-11-24T10:45:34Z</time>
      </trkpt>
      <trkpt lat="44.59963" lon="0.90094">
        <ele>152.99</ele>
        <time>2013-11-24T10:45:38Z</time>
      </trkpt>
      <trkpt lat="44.59976" lon="0.90074">
        <ele>151.54</ele>
        <time>2013-11-24T10:45:40Z</time>
      </trkpt>
      <trkpt lat="44.6002" lon="0.89953">
        <ele>150.1</ele>
        <time>2013-11-24T10:45:50Z</time>
      </trkpt>
      <trkpt lat="44.60023" lon="0.89895">
        <ele>150.58</ele>
        <time>2013-11-24T10:45:55Z</time>
      </trkpt>
      <trkpt lat="44.60021" lon="0.89845">
        <ele>152.99</ele>
        <time>2013-11-24T10:46:00Z</time>
      </trkpt>
      <trkpt lat="44.60027" lon="0.8983">
        <ele>154.91</ele>
        <time>2013-11-24T10:46:02Z</time>
      </trkpt>
      <trkpt lat="44.60034" lon="0.89791">
        <ele>159.72</ele>
        <time>2013-11-24T10:46:12Z</time>
      </trkpt>
      <trkpt lat="44.60037" lon="0.89745">
        <ele>160.68</ele>
        <time>2013-11-24T10:46:24Z</time>
      </trkpt>
      <trkpt lat="44.60052" lon="0.89683">
        <ele>159.72</ele>
        <time>2013-11-24T10:46:37Z</time>
      </trkpt>
      <trkpt lat="44.6006" lon="0.89654">
        <ele>160.68</ele>
        <time>2013-11-24T10:46:42Z</time>
      </trkpt>
      <trkpt lat="44.60065" lon="0.89589">
        <ele>158.75</ele>
        <time>2013-11-24T10:46:52Z</time>
      </trkpt>
      <trkpt lat="44.60075" lon="0.89507">
        <ele>161.64</ele>
        <time>2013-11-24T10:47:09Z</time>
      </trkpt>
      <trkpt lat="44.60075" lon="0.89504">
        <ele>163.56</ele>
        <time>2013-11-24T10:47:14Z</time>
      </trkpt>
      <trkpt lat="44.60054" lon="0.89486">
        <ele>165</ele>
        <time>2013-11-24T10:47:26Z</time>
      </trkpt>
      <trkpt lat="44.60046" lon="0.8948">
        <ele>165.48</ele>
        <time>2013-11-24T10:47:30Z</time>
      </trkpt>
      <trkpt lat="44.60044" lon="0.89481">
        <ele>166.93</ele>
        <time>2013-11-24T10:47:40Z</time>
      </trkpt>
    </trkseg>
  </trk>
</gpx>